Observation data for Lesley on 08/13/2019      Previous  Date       Current Mesonet Observations  Soil Data  Daily Summary Page  Observations in Plain Language
KLE1 130500Z 02015KT 25/20 A2997 RMK A01 T02450202  RH  077%=      5-min Rain = 0
KLE1 130501Z 00010KT 24/20 A2997 RMK A01 T02440202  RH  077%=      5-min Rain = 0
KLE1 130502Z 01014KT 24/20 A2997 RMK A01 T02430202  RH  078%=      5-min Rain = 0
KLE1 130503Z 01013G18KT 24/20 A2998 RMK A01 T02420202  RH  078%=      5-min Rain = 0
KLE1 130504Z 00013G18KT 24/20 A2998 RMK A01 T02420203  RH  079%=      5-min Rain = 0
KLE1 130505Z 00015KT 24/20 A2997 RMK A01 T02410203  RH  079%=      5-min Rain = 0
KLE1 130506Z 01016KT 24/20 A2997 RMK A01 T02410203  RH  079%=      5-min Rain = 0
KLE1 130507Z 01018KT 24/20 A2997 RMK A01 T02400202  RH  079%=      5-min Rain = 0
KLE1 130508Z 01017KT 24/20 A2997 RMK A01 T02410202  RH  079%=      5-min Rain = 0
KLE1 130509Z 01016KT 24/20 A2997 RMK A01 T02410203  RH  079%=      5-min Rain = 0
KLE1 130510Z 02014KT 24/20 A2997 RMK A01 T02400203  RH  079%=      5-min Rain = 0
KLE1 130511Z 02013KT 24/20 A2997 RMK A01 T02400203  RH  080%=      5-min Rain = 0
KLE1 130512Z 02015KT 24/20 A2997 RMK A01 T02400202  RH  079%=      5-min Rain = 0
KLE1 130513Z 02016G22KT 24/20 A2997 RMK A01 T02400202  RH  079%=      5-min Rain = 0
KLE1 130514Z 02015KT 24/20 A2997 RMK A01 T02400201  RH  079%=      5-min Rain = 0
KLE1 130515Z 02017KT 24/20 A2997 RMK A01 T02410201  RH  078%=      5-min Rain = 0
KLE1 130516Z 02016G21KT 24/20 A2998 RMK A01 T02410200  RH  078%=      5-min Rain = 0
KLE1 130517Z 02018KT 24/20 A2997 RMK A01 T02410200  RH  078%=      5-min Rain = 0
KLE1 130518Z 02014KT 24/20 A2998 RMK A01 T02420200  RH  078%=      5-min Rain = 0
KLE1 130519Z 03012KT 24/20 A2998 RMK A01 T02410201  RH  078%=      5-min Rain = 0
KLE1 130520Z 03012KT 24/20 A2998 RMK A01 T02410202  RH  079%=      5-min Rain = 0
KLE1 130521Z 02011KT 24/20 A2998 RMK A01 T02410203  RH  079%=      5-min Rain = 0
KLE1 130522Z 02013KT 24/20 A2998 RMK A01 T02400203  RH  080%=      5-min Rain = 0
KLE1 130523Z 02014KT 24/20 A2998 RMK A01 T02400203  RH  080%=      5-min Rain = 0
KLE1 130524Z 03011KT 24/20 A2998 RMK A01 T02400203  RH  080%=      5-min Rain = 0
KLE1 130525Z 03013G18KT 24/20 A2998 RMK A01 T02390204  RH  080%=      5-min Rain = 0
KLE1 130526Z 04014G20KT 24/20 A2998 RMK A01 T02390203  RH  080%=      5-min Rain = 0
KLE1 130527Z 04014G19KT 24/20 A2998 RMK A01 T02390203  RH  080%=      5-min Rain = 0
KLE1 130528Z 04013KT 24/20 A2998 RMK A01 T02390201  RH  079%=      5-min Rain = 0
KLE1 130529Z 04014KT 24/20 A2998 RMK A01 T02400203  RH  080%=      5-min Rain = 0
KLE1 130530Z 04013KT 24/20 A2998 RMK A01 T02400202  RH  079%=      5-min Rain = 0
KLE1 130531Z 05013KT 24/20 A2998 RMK A01 T02400202  RH  079%=      5-min Rain = 0
KLE1 130532Z 05011KT 24/20 A2998 RMK A01 T02390203  RH  080%=      5-min Rain = 0
KLE1 130533Z 04011KT 24/20 A2998 RMK A01 T02390202  RH  080%=      5-min Rain = 0
KLE1 130534Z 04012KT 24/20 A2998 RMK A01 T02390203  RH  080%=      5-min Rain = 0
KLE1 130535Z 04011KT 24/20 A2998 RMK A01 T02390202  RH  080%=      5-min Rain = 0
KLE1 130536Z 03014G21KT 24/20 A2998 RMK A01 T02390202  RH  080%=      5-min Rain = 0
KLE1 130537Z 04016KT 24/20 A2999 RMK A01 T02380202  RH  080%=      5-min Rain = 0
KLE1 130538Z 05017KT 24/20 A2999 RMK A01 T02390201  RH  080%=      5-min Rain = 0
KLE1 130539Z 05013KT 24/20 A2999 RMK A01 T02390201  RH  079%=      5-min Rain = 0
KLE1 130540Z 05011KT 24/20 A2999 RMK A01 T02390202  RH  080%=      5-min Rain = 0
KLE1 130541Z 05011KT 24/20 A2999 RMK A01 T02390202  RH  080%=      5-min Rain = 0
KLE1 130542Z 06013KT 24/20 A2999 RMK A01 T02380202  RH  080%=      5-min Rain = 0
KLE1 130543Z 05011KT 24/20 A2999 RMK A01 T02380202  RH  080%=      5-min Rain = 0
KLE1 130544Z 05012KT 24/20 A2999 RMK A01 T02370202  RH  080%=      5-min Rain = 0
KLE1 130545Z 04013KT 24/20 A2999 RMK A01 T02370201  RH  080%=      5-min Rain = 0
KLE1 130546Z 04013KT 24/20 A2999 RMK A01 T02380201  RH  080%=      5-min Rain = 0
KLE1 130547Z 05014G20KT 24/20 A2999 RMK A01 T02380201  RH  080%=      5-min Rain = 0
KLE1 130548Z 04018KT 24/20 A2998 RMK A01 T02390201  RH  079%=      5-min Rain = 0
KLE1 130549Z 04018G23KT 24/20 A2998 RMK A01 T02400200  RH  078%=      5-min Rain = 0
KLE1 130550Z 04018G23KT 24/20 A2998 RMK A01 T02410200  RH  078%=      5-min Rain = 0
KLE1 130551Z 04018KT 24/20 A2998 RMK A01 T02420201  RH  078%=      5-min Rain = 0
KLE1 130552Z 04019KT 24/20 A2998 RMK A01 T02420201  RH  078%=      5-min Rain = 0
KLE1 130553Z 04019KT 24/20 A2998 RMK A01 T02420200  RH  077%=      5-min Rain = 0
KLE1 130554Z 04017KT 24/20 A2997 RMK A01 T02430199  RH  077%=      5-min Rain = 0
KLE1 130555Z 04017KT 24/20 A2997 RMK A01 T02430200  RH  077%=      5-min Rain = 0
KLE1 130556Z 04020KT 24/20 A2997 RMK A01 T02430200  RH  077%=      5-min Rain = 0
KLE1 130557Z 04019KT 24/20 A2997 RMK A01 T02440200  RH  076%=      5-min Rain = 0
KLE1 130558Z 04018G25KT 24/20 A2997 RMK A01 T02440199  RH  076%=      5-min Rain = 0
KLE1 130559Z 04017KT 24/20 A2997 RMK A01 T02440200  RH  076%=      5-min Rain = 0
KLE1 130600Z 04020KT 24/20 A2997 RMK A01 T02440200  RH  077%=      5-min Rain = 0
KLE1 130601Z 05017KT 24/20 A2997 RMK A01 T02440199  RH  076%=      5-min Rain = 0
KLE1 130602Z 04015KT 24/20 A2997 RMK A01 T02440199  RH  076%=      5-min Rain = 0
KLE1 130603Z 04017KT 24/20 A2997 RMK A01 T02440199  RH  076%=      5-min Rain = 0
KLE1 130604Z 03017KT 24/20 A2997 RMK A01 T02440199  RH  076%=      5-min Rain = 0
KLE1 130605Z 03020KT 25/20 A2997 RMK A01 T02450199  RH  076%=      5-min Rain = 0
KLE1 130606Z 04021KT 25/20 A2997 RMK A01 T02450199  RH  075%=      5-min Rain = 0
KLE1 130607Z 03020KT 25/20 A2997 RMK A01 T02450199  RH  075%=      5-min Rain = 0
KLE1 130608Z 03019KT 25/20 A2997 RMK A01 T02460199  RH  075%=      5-min Rain = 0
KLE1 130609Z 03018KT 25/20 A2997 RMK A01 T02460200  RH  076%=      5-min Rain = 0
KLE1 130610Z 03018KT 25/20 A2997 RMK A01 T02460200  RH  076%=      5-min Rain = 0
KLE1 130611Z 03016KT 25/20 A2998 RMK A01 T02450200  RH  076%=      5-min Rain = 0
KLE1 130612Z 03014G19KT 24/20 A2998 RMK A01 T02440200  RH  076%=      5-min Rain = 0
KLE1 130613Z 04017KT 24/20 A2998 RMK A01 T02440201  RH  077%=      5-min Rain = 0
KLE1 130614Z 04019G24KT 24/20 A2998 RMK A01 T02430201  RH  078%=      5-min Rain = 0
KLE1 130615Z 04018G23KT 24/20 A2998 RMK A01 T02420201  RH  078%=      5-min Rain = 0
KLE1 130616Z 04019G24KT 24/20 A2998 RMK A01 T02410202  RH  079%=      5-min Rain = 0
KLE1 130617Z 03020KT 24/20 A2997 RMK A01 T02400202  RH  079%=      5-min Rain = 0
KLE1 130618Z 03017KT 24/20 A2997 RMK A01 T02400203  RH  080%=      5-min Rain = 0
KLE1 130619Z 03020G25KT 24/20 A2997 RMK A01 T02390203  RH  080%=      5-min Rain = 0
KLE1 130620Z 03021G26KT 24/20 A2997 RMK A01 T02380203  RH  081%=      5-min Rain = 0
KLE1 130621Z 04019KT 24/20 A2997 RMK A01 T02370203  RH  081%=      5-min Rain = 0
KLE1 130622Z 03021KT 24/20 A2997 RMK A01 T02370203  RH  081%=      5-min Rain = 0
KLE1 130623Z 03020KT 24/20 A2997 RMK A01 T02360203  RH  081%=      5-min Rain = 0
KLE1 130624Z 03021KT 24/20 A2997 RMK A01 T02360203  RH  081%=      5-min Rain = 0
KLE1 130625Z 04018G23KT 24/20 A2997 RMK A01 T02360203  RH  081%=      5-min Rain = 0
KLE1 130626Z 04020G25KT 24/20 A2997 RMK A01 T02360203  RH  082%=      5-min Rain = 0
KLE1 130627Z 04021KT 24/20 A2997 RMK A01 T02360203  RH  082%=      5-min Rain = 0
KLE1 130628Z 04018KT 24/20 A2997 RMK A01 T02360202  RH  081%=      5-min Rain = 0
KLE1 130629Z 04018G23KT 24/20 A2997 RMK A01 T02360202  RH  081%=      5-min Rain = 0
KLE1 130630Z 04017KT 24/20 A2997 RMK A01 T02360203  RH  082%=      5-min Rain = 0
KLE1 130631Z 04017KT 24/20 A2997 RMK A01 T02360203  RH  082%=      5-min Rain = 0
KLE1 130632Z 04017KT 24/20 A2997 RMK A01 T02360203  RH  082%=      5-min Rain = 0
KLE1 130633Z 04017KT 24/20 A2997 RMK A01 T02360202  RH  082%=      5-min Rain = 0
KLE1 130634Z 05016KT 24/20 A2996 RMK A01 T02360202  RH  081%=      5-min Rain = 0
KLE1 130635Z 05017KT 24/20 A2996 RMK A01 T02360202  RH  081%=      5-min Rain = 0
KLE1 130636Z 04018KT 24/20 A2996 RMK A01 T02360202  RH  081%=      5-min Rain = 0
KLE1 130637Z 04018KT 24/20 A2996 RMK A01 T02370202  RH  081%=      5-min Rain = 0
KLE1 130638Z 05017KT 24/20 A2996 RMK A01 T02370201  RH  080%=      5-min Rain = 0
KLE1 130639Z 05017KT 24/20 A2996 RMK A01 T02380202  RH  080%=      5-min Rain = 0
KLE1 130640Z 05018KT 24/20 A2996 RMK A01 T02380201  RH  080%=      5-min Rain = 0
KLE1 130641Z 04019KT 24/20 A2996 RMK A01 T02380201  RH  080%=      5-min Rain = 0
KLE1 130642Z 05017KT 24/20 A2996 RMK A01 T02380201  RH  080%=      5-min Rain = 0
KLE1 130643Z 05018KT 24/20 A2996 RMK A01 T02380201  RH  080%=      5-min Rain = 0
KLE1 130644Z 04019KT 24/20 A2995 RMK A01 T02390201  RH  079%=      5-min Rain = 0
KLE1 130645Z 04018KT 24/20 A2995 RMK A01 T02400201  RH  079%=      5-min Rain = 0
KLE1 130646Z 05017KT 24/20 A2995 RMK A01 T02400201  RH  079%=      5-min Rain = 0
KLE1 130647Z 05017KT 24/20 A2995 RMK A01 T02400201  RH  079%=      5-min Rain = 0
KLE1 130648Z 05019KT 24/20 A2995 RMK A01 T02400201  RH  079%=      5-min Rain = 0
KLE1 130649Z 04019KT 24/20 A2995 RMK A01 T02400201  RH  079%=      5-min Rain = 0
KLE1 130650Z 05021KT 24/20 A2995 RMK A01 T02400201  RH  079%=      5-min Rain = 0
KLE1 130651Z 05022KT 24/20 A2995 RMK A01 T02400201  RH  079%=      5-min Rain = 0
KLE1 130652Z 05021KT 24/20 A2994 RMK A01 T02400200  RH  078%=      5-min Rain = 0
KLE1 130653Z 05018G23KT 24/20 A2994 RMK A01 T02410200  RH  078%=      5-min Rain = 0
KLE1 130654Z 05021G26KT 24/20 A2994 RMK A01 T02410200  RH  078%=      5-min Rain = 0
KLE1 130655Z 05020KT 24/20 A2994 RMK A01 T02410200  RH  078%=      5-min Rain = 0
KLE1 130656Z 05018KT 24/20 A2994 RMK A01 T02420200  RH  078%=      5-min Rain = 0
KLE1 130657Z 05017G22KT 24/20 A2994 RMK A01 T02420200  RH  077%=      5-min Rain = 0
KLE1 130658Z 05017G22KT 24/20 A2994 RMK A01 T02420200  RH  077%=      5-min Rain = 0
KLE1 130659Z 05018KT 24/20 A2994 RMK A01 T02420200  RH  078%=      5-min Rain = 0
KLE1 130700Z 05018KT 24/20 A2994 RMK A01 T02420200  RH  078%=      5-min Rain = 0
KLE1 130701Z 05020KT 24/20 A2994 RMK A01 T02410200  RH  078%=      5-min Rain = 0
KLE1 130702Z 05018KT 24/20 A2994 RMK A01 T02410200  RH  078%=      5-min Rain = 0
KLE1 130703Z 05020KT 24/20 A2994 RMK A01 T02420201  RH  078%=      5-min Rain = 0
KLE1 130704Z 05021KT 24/20 A2994 RMK A01 T02420199  RH  077%=      5-min Rain = 0
KLE1 130705Z 05020KT 24/20 A2994 RMK A01 T02430200  RH  077%=      5-min Rain = 0
KLE1 130706Z 05019G25KT 24/20 A2994 RMK A01 T02430200  RH  077%=      5-min Rain = 0
KLE1 130707Z 05020G26KT 24/20 A2994 RMK A01 T02430200  RH  077%=      5-min Rain = 0
KLE1 130708Z 05020KT 24/20 A2994 RMK A01 T02430200  RH  077%=      5-min Rain = 0
KLE1 130709Z 05020KT 24/20 A2994 RMK A01 T02430200  RH  077%=      5-min Rain = 0
KLE1 130710Z 05021KT 24/20 A2994 RMK A01 T02430200  RH  077%=      5-min Rain = 0
KLE1 130711Z 06017KT 24/20 A2994 RMK A01 T02430199  RH  077%=      5-min Rain = 0
KLE1 130712Z 05016KT 24/20 A2994 RMK A01 T02430200  RH  077%=      5-min Rain = 0
KLE1 130713Z 05019KT 24/20 A2993 RMK A01 T02430200  RH  077%=      5-min Rain = 0
KLE1 130714Z 06019KT 24/20 A2993 RMK A01 T02430200  RH  077%=      5-min Rain = 0
KLE1 130715Z 05020G25KT 24/20 A2993 RMK A01 T02430200  RH  077%=      5-min Rain = 0
KLE1 130716Z 05017KT 24/20 A2993 RMK A01 T02430199  RH  076%=      5-min Rain = 0
KLE1 130717Z 06019KT 24/20 A2993 RMK A01 T02440200  RH  077%=      5-min Rain = 0
KLE1 130718Z 05019KT 24/20 A2993 RMK A01 T02440200  RH  077%=      5-min Rain = 0
KLE1 130719Z 05019KT 24/20 A2993 RMK A01 T02430200  RH  077%=      5-min Rain = 0
KLE1 130720Z 05018KT 24/20 A2993 RMK A01 T02430200  RH  077%=      5-min Rain = 0
KLE1 130721Z 06017G22KT 24/20 A2993 RMK A01 T02430201  RH  077%=      5-min Rain = 0
KLE1 130722Z 06019G27KT 24/20 A2993 RMK A01 T02420200  RH  077%=      5-min Rain = 0
KLE1 130723Z 06020G25KT 24/20 A2993 RMK A01 T02420199  RH  077%=      5-min Rain = 0
KLE1 130724Z 06018KT 24/20 A2993 RMK A01 T02430200  RH  077%=      5-min Rain = 0
KLE1 130725Z 06017G22KT 24/20 A2993 RMK A01 T02430200  RH  077%=      5-min Rain = 0
KLE1 130726Z 06017KT 24/20 A2993 RMK A01 T02420201  RH  078%=      5-min Rain = 0
KLE1 130727Z 06017KT 24/20 A2993 RMK A01 T02410201  RH  078%=      5-min Rain = 0
KLE1 130728Z 06020KT 24/20 A2993 RMK A01 T02410201  RH  078%=      5-min Rain = 0
KLE1 130729Z 06020KT 24/20 A2993 RMK A01 T02410200  RH  078%=      5-min Rain = 0
KLE1 130730Z 06019KT 24/20 A2993 RMK A01 T02420201  RH  078%=      5-min Rain = 0
KLE1 130731Z 06023KT 24/20 A2993 RMK A01 T02410200  RH  078%=      5-min Rain = 0
KLE1 130732Z 06019KT 24/20 A2993 RMK A01 T02420201  RH  078%=      5-min Rain = 0
KLE1 130733Z 06018KT 24/20 A2993 RMK A01 T02420201  RH  078%=      5-min Rain = 0
KLE1 130734Z 06019KT 24/20 A2993 RMK A01 T02410201  RH  078%=      5-min Rain = 0
KLE1 130735Z 06017KT 24/20 A2993 RMK A01 T02410201  RH  078%=      5-min Rain = 0
KLE1 130736Z 06020KT 24/20 A2993 RMK A01 T02410202  RH  079%=      5-min Rain = 0
KLE1 130737Z 06020KT 24/20 A2993 RMK A01 T02410201  RH  078%=      5-min Rain = 0
KLE1 130738Z 06019KT 24/20 A2993 RMK A01 T02410201  RH  078%=      5-min Rain = 0
KLE1 130739Z 06018KT 24/20 A2994 RMK A01 T02410202  RH  079%=      5-min Rain = 0
KLE1 130740Z 06017KT 24/20 A2994 RMK A01 T02410202  RH  079%=      5-min Rain = 0
KLE1 130741Z 06018KT 24/20 A2994 RMK A01 T02410202  RH  079%=      5-min Rain = 0
KLE1 130742Z 05018KT 24/20 A2994 RMK A01 T02410201  RH  078%=      5-min Rain = 0
KLE1 130743Z 06019KT 24/20 A2994 RMK A01 T02410201  RH  078%=      5-min Rain = 0
KLE1 130744Z 05017KT 24/20 A2994 RMK A01 T02420201  RH  078%=      5-min Rain = 0
KLE1 130745Z 06018G23KT 24/20 A2994 RMK A01 T02410201  RH  078%=      5-min Rain = 0
KLE1 130746Z 05019KT 24/20 A2994 RMK A01 T02420201  RH  078%=      5-min Rain = 0
KLE1 130747Z 05019KT 24/20 A2994 RMK A01 T02430201  RH  077%=      5-min Rain = 0
KLE1 130748Z 05017KT 24/20 A2994 RMK A01 T02430201  RH  077%=      5-min Rain = 0
KLE1 130749Z 05019KT 24/20 A2994 RMK A01 T02430201  RH  077%=      5-min Rain = 0
KLE1 130750Z 06015KT 24/20 A2994 RMK A01 T02440201  RH  077%=      5-min Rain = 0
KLE1 130751Z 06016G21KT 24/20 A2994 RMK A01 T02440201  RH  077%=      5-min Rain = 0
KLE1 130752Z 06015KT 24/20 A2994 RMK A01 T02440201  RH  077%=      5-min Rain = 0
KLE1 130753Z 06015KT 24/20 A2994 RMK A01 T02440201  RH  077%=      5-min Rain = 0
KLE1 130754Z 06020KT 24/20 A2994 RMK A01 T02440200  RH  076%=      5-min Rain = 0
KLE1 130755Z 06018KT 25/20 A2994 RMK A01 T02450200  RH  076%=      5-min Rain = 0
KLE1 130756Z 06020KT 25/20 A2994 RMK A01 T02460200  RH  076%=      5-min Rain = 0
KLE1 130757Z 06016KT 25/20 A2994 RMK A01 T02460200  RH  075%=      5-min Rain = 0
KLE1 130758Z 06015KT 25/20 A2994 RMK A01 T02460201  RH  076%=      5-min Rain = 0
KLE1 130759Z 05016KT 25/20 A2994 RMK A01 T02460201  RH  076%=      5-min Rain = 0
KLE1 130800Z 06015KT 25/20 A2994 RMK A01 T02460201  RH  076%=      5-min Rain = 0
KLE1 130801Z 05017KT 25/20 A2994 RMK A01 T02460201  RH  076%=      5-min Rain = 0
KLE1 130802Z 06017KT 25/20 A2994 RMK A01 T02460201  RH  076%=      5-min Rain = 0
KLE1 130803Z 06018KT 25/20 A2994 RMK A01 T02450200  RH  076%=      5-min Rain = 0
KLE1 130804Z 05019KT 25/20 A2994 RMK A01 T02460201  RH  076%=      5-min Rain = 0
KLE1 130805Z 06017G22KT 25/20 A2994 RMK A01 T02450202  RH  077%=      5-min Rain = 0
KLE1 130806Z 06018KT 24/20 A2994 RMK A01 T02440202  RH  078%=      5-min Rain = 0
KLE1 130807Z 05017KT 24/20 A2994 RMK A01 T02430202  RH  078%=      5-min Rain = 0
KLE1 130808Z 06019KT 24/20 A2994 RMK A01 T02420203  RH  079%=      5-min Rain = 0
KLE1 130809Z 06019KT 24/20 A2994 RMK A01 T02410203  RH  079%=      5-min Rain = 0
KLE1 130810Z 06020G25KT 24/20 A2994 RMK A01 T02400203  RH  080%=      5-min Rain = 0
KLE1 130811Z 07017KT 24/20 A2994 RMK A01 T02390203  RH  081%=      5-min Rain = 0
KLE1 130812Z 07017KT 24/20 A2994 RMK A01 T02380204  RH  081%=      5-min Rain = 0
KLE1 130813Z 06020KT 24/20 A2994 RMK A01 T02370204  RH  081%=      5-min Rain = 0
KLE1 130814Z 06018KT 24/20 A2994 RMK A01 T02370204  RH  082%=      5-min Rain = 0
KLE1 130815Z 07022KT 24/20 A2994 RMK A01 T02360204  RH  082%=      5-min Rain = 0
KLE1 130816Z 06018KT 24/20 A2994 RMK A01 T02350204  RH  083%=      5-min Rain = 0
KLE1 130817Z 06019KT 24/20 A2994 RMK A01 T02350204  RH  083%=      5-min Rain = 0
KLE1 130818Z 07020KT 24/21 A2994 RMK A01 T02350205  RH  083%=      5-min Rain = 0
KLE1 130819Z 07016KT 23/21 A2994 RMK A01 T02340205  RH  084%=      5-min Rain = 0
KLE1 130820Z 07019KT 23/21 A2994 RMK A01 T02340205  RH  084%=      5-min Rain = 0
KLE1 130821Z 07020KT 23/21 A2994 RMK A01 T02330205  RH  084%=      5-min Rain = 0
KLE1 130822Z 08017KT 23/21 A2994 RMK A01 T02330205  RH  084%=      5-min Rain = 0
KLE1 130823Z 07019KT 23/21 A2994 RMK A01 T02330205  RH  084%=      5-min Rain = 0
KLE1 130824Z 07018KT 23/21 A2994 RMK A01 T02330205  RH  084%=      5-min Rain = 0
KLE1 130825Z 07020KT 23/21 A2994 RMK A01 T02330205  RH  084%=      5-min Rain = 0
KLE1 130826Z 07018KT 23/21 A2994 RMK A01 T02330205  RH  084%=      5-min Rain = 0
KLE1 130827Z 07018KT 23/21 A2994 RMK A01 T02330205  RH  084%=      5-min Rain = 0
KLE1 130828Z 07018KT 23/20 A2994 RMK A01 T02330204  RH  084%=      5-min Rain = 0
KLE1 130829Z 08018KT 23/20 A2994 RMK A01 T02330204  RH  084%=      5-min Rain = 0
KLE1 130830Z 08017G23KT 23/21 A2994 RMK A01 T02330205  RH  084%=      5-min Rain = 0
KLE1 130831Z 08018KT 23/21 A2994 RMK A01 T02330205  RH  084%=      5-min Rain = 0
KLE1 130832Z 08018G24KT 23/21 A2993 RMK A01 T02330205  RH  084%=      5-min Rain = 0
KLE1 130833Z 08020KT 23/21 A2993 RMK A01 T02330205  RH  084%=      5-min Rain = 0
KLE1 130834Z 08021KT 23/21 A2993 RMK A01 T02330205  RH  084%=      5-min Rain = 0
KLE1 130835Z 08021KT 23/21 A2993 RMK A01 T02340205  RH  084%=      5-min Rain = 0
KLE1 130836Z 08019KT 23/20 A2993 RMK A01 T02340204  RH  083%=      5-min Rain = 0
KLE1 130837Z 08018KT 23/21 A2993 RMK A01 T02340205  RH  083%=      5-min Rain = 0
KLE1 130838Z 08017KT 23/21 A2993 RMK A01 T02340205  RH  083%=      5-min Rain = 0
KLE1 130839Z 08015G21KT 23/21 A2993 RMK A01 T02340205  RH  084%=      5-min Rain = 0
KLE1 130840Z 08018KT 23/21 A2993 RMK A01 T02340206  RH  084%=      5-min Rain = 0
KLE1 130841Z 08015KT 23/21 A2993 RMK A01 T02340205  RH  084%=      5-min Rain = 0
KLE1 130842Z 08016KT 23/21 A2993 RMK A01 T02340206  RH  084%=      5-min Rain = 0
KLE1 130843Z 08014KT 23/21 A2994 RMK A01 T02340206  RH  084%=      5-min Rain = 0
KLE1 130844Z 08015KT 23/21 A2994 RMK A01 T02340206  RH  084%=      5-min Rain = 0
KLE1 130845Z 08014KT 23/21 A2994 RMK A01 T02340206  RH  084%=      5-min Rain = 0
KLE1 130846Z 08011KT 23/21 A2994 RMK A01 T02340206  RH  084%=      5-min Rain = 0
KLE1 130847Z 07013KT 23/21 A2994 RMK A01 T02340206  RH  084%=      5-min Rain = 0
KLE1 130848Z 07012KT 23/21 A2995 RMK A01 T02340205  RH  084%=      5-min Rain = 0
KLE1 130849Z 07012KT 23/21 A2995 RMK A01 T02340205  RH  084%=      5-min Rain = 0
KLE1 130850Z 07011KT 24/21 A2995 RMK A01 T02350205  RH  084%=      5-min Rain = 0
KLE1 130851Z 06012KT 24/21 A2995 RMK A01 T02350205  RH  083%=      5-min Rain = 0
KLE1 130852Z 06012KT 24/21 A2996 RMK A01 T02350205  RH  083%=      5-min Rain = 0
KLE1 130853Z 06012KT 24/21 A2996 RMK A01 T02360205  RH  082%=      5-min Rain = 0
KLE1 130854Z 06012KT 24/21 A2996 RMK A01 T02370205  RH  082%=      5-min Rain = 0
KLE1 130855Z 06012KT 24/21 A2996 RMK A01 T02370205  RH  082%=      5-min Rain = 0
KLE1 130856Z 05013KT 24/21 A2996 RMK A01 T02370205  RH  082%=      5-min Rain = 0
KLE1 130857Z 06011KT 24/21 A2996 RMK A01 T02370205  RH  082%=      5-min Rain = 0
KLE1 130858Z 06014KT 24/21 A2996 RMK A01 T02380205  RH  082%=      5-min Rain = 0
KLE1 130859Z 06013KT 24/21 A2996 RMK A01 T02380205  RH  082%=      5-min Rain = 0
KLE1 130900Z 07012KT 24/21 A2995 RMK A01 T02380205  RH  081%=      5-min Rain = 0
KLE1 130901Z 06015KT 24/21 A2995 RMK A01 T02390205  RH  081%=      5-min Rain = 0
KLE1 130902Z 07015KT 24/20 A2995 RMK A01 T02380204  RH  081%=      5-min Rain = 0
KLE1 130903Z 07012KT 24/20 A2995 RMK A01 T02390204  RH  081%=      5-min Rain = 0
KLE1 130904Z 07011KT 24/21 A2995 RMK A01 T02390206  RH  081%=      5-min Rain = 0
KLE1 130905Z 07012KT 24/21 A2995 RMK A01 T02390205  RH  082%=      5-min Rain = 0
KLE1 130906Z 06011KT 24/21 A2995 RMK A01 T02380205  RH  082%=      5-min Rain = 0
KLE1 130907Z 06015KT 24/20 A2995 RMK A01 T02380204  RH  081%=      5-min Rain = 0
KLE1 130908Z 06013KT 24/20 A2995 RMK A01 T02390204  RH  081%=      5-min Rain = 0
KLE1 130909Z 06012KT 24/20 A2996 RMK A01 T02400204  RH  081%=      5-min Rain = 0
KLE1 130910Z 06011KT 24/20 A2996 RMK A01 T02400204  RH  081%=      5-min Rain = 0
KLE1 130911Z 06012KT 24/20 A2996 RMK A01 T02400204  RH  081%=      5-min Rain = 0
KLE1 130912Z 05011KT 24/20 A2996 RMK A01 T02400204  RH  080%=      5-min Rain = 0
KLE1 130913Z 05012KT 24/20 A2996 RMK A01 T02400204  RH  080%=      5-min Rain = 0
KLE1 130914Z 06012KT 24/20 A2996 RMK A01 T02400203  RH  080%=      5-min Rain = 0
KLE1 130915Z 05012KT 24/20 A2996 RMK A01 T02410204  RH  080%=      5-min Rain = 0
KLE1 130916Z 05013KT 24/20 A2996 RMK A01 T02410202  RH  079%=      5-min Rain = 0
KLE1 130917Z 05013KT 24/20 A2996 RMK A01 T02410201  RH  078%=      5-min Rain = 0
KLE1 130918Z 05014KT 24/20 A2996 RMK A01 T02410200  RH  078%=      5-min Rain = 0
KLE1 130919Z 06014KT 24/20 A2996 RMK A01 T02410199  RH  077%=      5-min Rain = 0
KLE1 130920Z 05013KT 24/20 A2996 RMK A01 T02400198  RH  077%=      5-min Rain = 0
KLE1 130921Z 06013KT 24/20 A2996 RMK A01 T02390198  RH  078%=      5-min Rain = 0
KLE1 130922Z 07010KT 24/20 A2996 RMK A01 T02390197  RH  078%=      5-min Rain = 0
KLE1 130923Z 07011KT 24/20 A2995 RMK A01 T02390197  RH  078%=      5-min Rain = 0
KLE1 130924Z 07013KT 24/20 A2995 RMK A01 T02390196  RH  077%=      5-min Rain = 0
KLE1 130925Z 07011KT 24/20 A2995 RMK A01 T02390196  RH  077%=      5-min Rain = 0
KLE1 130926Z 07011KT 24/20 A2996 RMK A01 T02390196  RH  077%=      5-min Rain = 0
KLE1 130927Z 07011KT 24/20 A2996 RMK A01 T02390196  RH  077%=      5-min Rain = 0
KLE1 130928Z 06011KT 24/20 A2996 RMK A01 T02380196  RH  077%=      5-min Rain = 0
KLE1 130929Z 07011KT 24/20 A2996 RMK A01 T02380196  RH  077%=      5-min Rain = 0
KLE1 130930Z 08010KT 24/20 A2995 RMK A01 T02380195  RH  077%=      5-min Rain = 0
KLE1 130931Z 08011KT 24/19 A2995 RMK A01 T02380194  RH  077%=      5-min Rain = 0
KLE1 130932Z 08011KT 24/19 A2995 RMK A01 T02380194  RH  076%=      5-min Rain = 0
KLE1 130933Z 08010KT 24/20 A2995 RMK A01 T02380195  RH  077%=      5-min Rain = 0
KLE1 130934Z 09010KT 24/20 A2995 RMK A01 T02380195  RH  077%=      5-min Rain = 0
KLE1 130935Z 09011KT 24/19 A2995 RMK A01 T02370194  RH  077%=      5-min Rain = 0
KLE1 130936Z 09012KT 24/19 A2995 RMK A01 T02370192  RH  076%=      5-min Rain = 0
KLE1 130937Z 09012KT 24/19 A2995 RMK A01 T02370191  RH  076%=      5-min Rain = 0
KLE1 130938Z 09011KT 24/19 A2995 RMK A01 T02370191  RH  076%=      5-min Rain = 0
KLE1 130939Z 10010KT 24/19 A2995 RMK A01 T02370192  RH  076%=      5-min Rain = 0
KLE1 130940Z 09009KT 24/19 A2995 RMK A01 T02360193  RH  077%=      5-min Rain = 0
KLE1 130941Z 10009KT 24/19 A2995 RMK A01 T02350193  RH  077%=      5-min Rain = 0
KLE1 130942Z 10009KT 24/19 A2995 RMK A01 T02350193  RH  077%=      5-min Rain = 0
KLE1 130943Z 10009KT 23/19 A2995 RMK A01 T02340194  RH  078%=      5-min Rain = 0
KLE1 130944Z 10009KT 23/19 A2994 RMK A01 T02340194  RH  078%=      5-min Rain = 0
KLE1 130945Z 10010KT 23/19 A2994 RMK A01 T02340194  RH  078%=      5-min Rain = 0
KLE1 130946Z 10009KT 23/19 A2994 RMK A01 T02340193  RH  078%=      5-min Rain = 0
KLE1 130947Z 10009KT 23/19 A2994 RMK A01 T02330194  RH  078%=      5-min Rain = 0
KLE1 130948Z 11010KT 23/19 A2994 RMK A01 T02330194  RH  079%=      5-min Rain = 0
KLE1 130949Z 12010KT 23/19 A2994 RMK A01 T02330194  RH  079%=      5-min Rain = 0
KLE1 130950Z 12010KT 23/19 A2994 RMK A01 T02330194  RH  079%=      5-min Rain = 0
KLE1 130951Z 12010KT 23/19 A2994 RMK A01 T02340194  RH  078%=      5-min Rain = 0
KLE1 130952Z 12009KT 23/19 A2994 RMK A01 T02330192  RH  078%=      5-min Rain = 0
KLE1 130953Z 12010KT 23/19 A2994 RMK A01 T02340193  RH  078%=      5-min Rain = 0
KLE1 130954Z 12010KT 23/19 A2994 RMK A01 T02340191  RH  077%=      5-min Rain = 0
KLE1 130955Z 12010KT 23/19 A2994 RMK A01 T02340190  RH  076%=      5-min Rain = 0
KLE1 130956Z 12010KT 23/19 A2994 RMK A01 T02340190  RH  076%=      5-min Rain = 0
KLE1 130957Z 12010KT 23/19 A2994 RMK A01 T02340190  RH  076%=      5-min Rain = 0
KLE1 130958Z 12008KT 23/19 A2994 RMK A01 T02340190  RH  076%=      5-min Rain = 0
KLE1 130959Z 13007KT 23/19 A2994 RMK A01 T02330191  RH  077%=      5-min Rain = 0
KLE1 131000Z 13007KT 23/19 A2994 RMK A01 T02330191  RH  077%=      5-min Rain = 0
KLE1 131001Z 13007KT 23/19 A2994 RMK A01 T02330192  RH  078%=      5-min Rain = 0
KLE1 131002Z 13007KT 23/19 A2994 RMK A01 T02330192  RH  078%=      5-min Rain = 0
KLE1 131003Z 13008KT 23/19 A2994 RMK A01 T02330192  RH  078%=      5-min Rain = 0
KLE1 131004Z 13007KT 23/19 A2994 RMK A01 T02330193  RH  078%=      5-min Rain = 0
KLE1 131005Z 13008KT 23/19 A2994 RMK A01 T02330194  RH  079%=      5-min Rain = 0
KLE1 131006Z 13008KT 23/19 A2994 RMK A01 T02330194  RH  079%=      5-min Rain = 0
KLE1 131007Z 14009KT 23/19 A2994 RMK A01 T02330194  RH  078%=      5-min Rain = 0
KLE1 131008Z 14008KT 23/19 A2994 RMK A01 T02340194  RH  078%=      5-min Rain = 0
KLE1 131009Z 15008KT 23/20 A2994 RMK A01 T02340195  RH  079%=      5-min Rain = 0
KLE1 131010Z 15008KT 23/20 A2994 RMK A01 T02340195  RH  079%=      5-min Rain = 0
KLE1 131011Z 15008KT 23/20 A2994 RMK A01 T02340196  RH  079%=      5-min Rain = 0
KLE1 131012Z 16008KT 23/20 A2994 RMK A01 T02340196  RH  079%=      5-min Rain = 0
KLE1 131013Z 16008KT 23/20 A2994 RMK A01 T02340197  RH  079%=      5-min Rain = 0
KLE1 131014Z 15007KT 24/20 A2994 RMK A01 T02350198  RH  080%=      5-min Rain = 0
KLE1 131015Z 16008KT 24/20 A2994 RMK A01 T02350199  RH  080%=      5-min Rain = 0
KLE1 131016Z 15009KT 24/20 A2994 RMK A01 T02350199  RH  081%=      5-min Rain = 0
KLE1 131017Z 14010KT 24/20 A2994 RMK A01 T02350200  RH  081%=      5-min Rain = 0
KLE1 131018Z 14010KT 24/20 A2994 RMK A01 T02360201  RH  080%=      5-min Rain = 0
KLE1 131019Z 14011KT 24/20 A2994 RMK A01 T02370201  RH  080%=      5-min Rain = 0
KLE1 131020Z 14012KT 24/20 A2993 RMK A01 T02380203  RH  081%=      5-min Rain = 0
KLE1 131021Z 13012KT 24/20 A2993 RMK A01 T02370203  RH  081%=      5-min Rain = 0
KLE1 131022Z 13013KT 24/21 A2993 RMK A01 T02370205  RH  082%=      5-min Rain = 0
KLE1 131023Z 13012KT 24/21 A2993 RMK A01 T02360206  RH  083%=      5-min Rain = 0.01
KLE1 131024Z 13012KT 23/21 A2993 RMK A01 T02330207  RH  085%=      5-min Rain = 0
KLE1 131025Z 13011KT 23/21 A2993 RMK A01 T02310206  RH  086%=      5-min Rain = 0
KLE1 131026Z 13010KT 23/21 A2993 RMK A01 T02310207  RH  086%=      5-min Rain = 0
KLE1 131027Z 12011KT 23/21 A2993 RMK A01 T02300206  RH  087%=      5-min Rain = 0.02
KLE1 131028Z 12010KT 23/21 A2993 RMK A01 T02300206  RH  086%=      5-min Rain = 0
KLE1 131029Z 12011KT 23/21 A2993 RMK A01 T02300206  RH  087%=      5-min Rain = 0
KLE1 131030Z 11009KT 23/21 A2993 RMK A01 T02300206  RH  086%=      5-min Rain = 0
KLE1 131031Z 11007KT 23/21 A2993 RMK A01 T02300207  RH  087%=      5-min Rain = 0
KLE1 131032Z 10006KT 23/21 A2993 RMK A01 T02290207  RH  087%=      5-min Rain = 0
KLE1 131033Z 09006KT 23/21 A2993 RMK A01 T02290206  RH  087%=      5-min Rain = 0
KLE1 131034Z 08006KT 23/21 A2994 RMK A01 T02290207  RH  087%=      5-min Rain = 0
KLE1 131035Z 07005KT 23/21 A2994 RMK A01 T02290208  RH  088%=      5-min Rain = 0
KLE1 131036Z 07004KT 23/21 A2994 RMK A01 T02280208  RH  088%=      5-min Rain = 0
KLE1 131037Z 06004KT 23/21 A2994 RMK A01 T02280208  RH  089%=      5-min Rain = 0
KLE1 131038Z 06004KT 23/21 A2994 RMK A01 T02270208  RH  089%=      5-min Rain = 0
KLE1 131039Z 06004KT 23/21 A2994 RMK A01 T02270209  RH  089%=      5-min Rain = 0
KLE1 131040Z 06003KT 23/21 A2994 RMK A01 T02270207  RH  089%=      5-min Rain = 0
KLE1 131041Z 06002KT 23/21 A2994 RMK A01 T02260207  RH  089%=      5-min Rain = 0
KLE1 131042Z 05002KT 23/21 A2994 RMK A01 T02270208  RH  089%=      5-min Rain = 0
KLE1 131043Z 05002KT 23/21 A2994 RMK A01 T02270207  RH  089%=      5-min Rain = 0
KLE1 131044Z 06002KT 23/21 A2994 RMK A01 T02270208  RH  089%=      5-min Rain = 0
KLE1 131045Z 05002KT 23/21 A2994 RMK A01 T02270207  RH  089%=      5-min Rain = 0
KLE1 131046Z 06002KT 23/21 A2995 RMK A01 T02270208  RH  089%=      5-min Rain = 0
KLE1 131047Z 05001KT 23/21 A2995 RMK A01 T02260207  RH  089%=      5-min Rain = 0
KLE1 131048Z 07001KT 23/21 A2995 RMK A01 T02270206  RH  088%=      5-min Rain = 0
KLE1 131049Z 06000KT 23/21 A2995 RMK A01 T02270205  RH  088%=      5-min Rain = 0
KLE1 131050Z 36001KT 23/21 A2995 RMK A01 T02270206  RH  088%=      5-min Rain = 0
KLE1 131051Z 34002KT 23/21 A2995 RMK A01 T02270207  RH  088%=      5-min Rain = 0
KLE1 131052Z 32004KT 23/21 A2995 RMK A01 T02270208  RH  089%=      5-min Rain = 0
KLE1 131053Z 32006KT 23/21 A2995 RMK A01 T02270209  RH  089%=      5-min Rain = 0
KLE1 131054Z 32006KT 23/21 A2995 RMK A01 T02260209  RH  090%=      5-min Rain = 0
KLE1 131055Z 32006KT 23/21 A2996 RMK A01 T02250209  RH  091%=      5-min Rain = 0
KLE1 131056Z 31006KT 22/21 A2996 RMK A01 T02240209  RH  091%=      5-min Rain = 0
KLE1 131057Z 31006KT 22/21 A2996 RMK A01 T02230207  RH  091%=      5-min Rain = 0
KLE1 131058Z 31006KT 22/21 A2996 RMK A01 T02220207  RH  091%=      5-min Rain = 0
KLE1 131059Z 31006KT 22/21 A2996 RMK A01 T02220207  RH  091%=      5-min Rain = 0
KLE1 131100Z 31006KT 22/21 A2996 RMK A01 T02220207  RH  091%=      5-min Rain = 0
KLE1 131101Z 31004KT 22/21 A2996 RMK A01 T02210207  RH  091%=      5-min Rain = 0
KLE1 131102Z 31004KT 22/21 A2996 RMK A01 T02220206  RH  091%=      5-min Rain = 0
KLE1 131103Z 31003KT 22/21 A2996 RMK A01 T02210206  RH  091%=      5-min Rain = 0
KLE1 131104Z 31003KT 22/21 A2996 RMK A01 T02210206  RH  091%=      5-min Rain = 0
KLE1 131105Z 32003KT 22/21 A2996 RMK A01 T02210206  RH  091%=      5-min Rain = 0
KLE1 131106Z 32004KT 22/21 A2996 RMK A01 T02210206  RH  091%=      5-min Rain = 0
KLE1 131107Z 32004KT 22/21 A2996 RMK A01 T02220207  RH  091%=      5-min Rain = 0
KLE1 131108Z 32004KT 22/21 A2996 RMK A01 T02210206  RH  091%=      5-min Rain = 0
KLE1 131109Z 32004KT 22/21 A2996 RMK A01 T02210207  RH  091%=      5-min Rain = 0
KLE1 131110Z 32005KT 22/21 A2996 RMK A01 T02210207  RH  091%=      5-min Rain = 0
KLE1 131111Z 31005KT 22/21 A2996 RMK A01 T02210205  RH  090%=      5-min Rain = 0
KLE1 131112Z 31005KT 22/20 A2996 RMK A01 T02210204  RH  090%=      5-min Rain = 0
KLE1 131113Z 31005KT 22/20 A2996 RMK A01 T02210204  RH  090%=      5-min Rain = 0
KLE1 131114Z 31004KT 22/20 A2996 RMK A01 T02210204  RH  090%=      5-min Rain = 0
KLE1 131115Z 30005KT 22/20 A2996 RMK A01 T02210204  RH  090%=      5-min Rain = 0
KLE1 131116Z 31005KT 22/20 A2996 RMK A01 T02210204  RH  090%=      5-min Rain = 0
KLE1 131117Z 31006KT 22/20 A2996 RMK A01 T02200203  RH  090%=      5-min Rain = 0
KLE1 131118Z 31005KT 22/20 A2996 RMK A01 T02200202  RH  089%=      5-min Rain = 0
KLE1 131119Z 32006KT 22/20 A2996 RMK A01 T02200200  RH  089%=      5-min Rain = 0
KLE1 131120Z 31006KT 22/20 A2996 RMK A01 T02210199  RH  087%=      5-min Rain = 0
KLE1 131121Z 31006KT 22/20 A2996 RMK A01 T02220199  RH  086%=      5-min Rain = 0
KLE1 131122Z 31005KT 22/20 A2996 RMK A01 T02230198  RH  086%=      5-min Rain = 0
KLE1 131123Z 31005KT 22/20 A2996 RMK A01 T02230199  RH  086%=      5-min Rain = 0
KLE1 131124Z 31005KT 22/20 A2996 RMK A01 T02230199  RH  086%=      5-min Rain = 0
KLE1 131125Z 31005KT 22/20 A2997 RMK A01 T02230199  RH  086%=      5-min Rain = 0
KLE1 131126Z 31004KT 22/20 A2997 RMK A01 T02220199  RH  087%=      5-min Rain = 0
KLE1 131127Z 31005KT 22/20 A2997 RMK A01 T02210199  RH  087%=      5-min Rain = 0
KLE1 131128Z 31005KT 22/20 A2997 RMK A01 T02210199  RH  087%=      5-min Rain = 0
KLE1 131129Z 32005KT 22/20 A2997 RMK A01 T02210200  RH  088%=      5-min Rain = 0
KLE1 131130Z 32004KT 22/20 A2997 RMK A01 T02200198  RH  087%=      5-min Rain = 0
KLE1 131131Z 32004KT 22/20 A2997 RMK A01 T02200196  RH  086%=      5-min Rain = 0
KLE1 131132Z 32004KT 22/20 A2997 RMK A01 T02210195  RH  085%=      5-min Rain = 0
KLE1 131133Z 32004KT 22/20 A2997 RMK A01 T02210195  RH  085%=      5-min Rain = 0
KLE1 131134Z 31004KT 22/20 A2997 RMK A01 T02220196  RH  085%=      5-min Rain = 0
KLE1 131135Z 31004KT 22/20 A2997 RMK A01 T02210196  RH  085%=      5-min Rain = 0
KLE1 131136Z 31004KT 22/20 A2997 RMK A01 T02210196  RH  085%=      5-min Rain = 0
KLE1 131137Z 30005KT 22/20 A2997 RMK A01 T02210195  RH  085%=      5-min Rain = 0
KLE1 131138Z 30004KT 22/20 A2997 RMK A01 T02220196  RH  085%=      5-min Rain = 0
KLE1 131139Z 30004KT 22/20 A2997 RMK A01 T02210195  RH  085%=      5-min Rain = 0
KLE1 131140Z 31004KT 22/20 A2997 RMK A01 T02210195  RH  085%=      5-min Rain = 0
KLE1 131141Z 32004KT 22/20 A2998 RMK A01 T02210196  RH  085%=      5-min Rain = 0
KLE1 131142Z 32004KT 22/20 A2998 RMK A01 T02210196  RH  085%=      5-min Rain = 0
KLE1 131143Z 31005KT 22/20 A2998 RMK A01 T02210196  RH  086%=      5-min Rain = 0
KLE1 131144Z 31005KT 22/20 A2998 RMK A01 T02210195  RH  085%=      5-min Rain = 0
KLE1 131145Z 32005KT 22/19 A2998 RMK A01 T02210194  RH  085%=      5-min Rain = 0
KLE1 131146Z 33005KT 22/20 A2998 RMK A01 T02210195  RH  085%=      5-min Rain = 0
KLE1 131147Z 32005KT 22/20 A2998 RMK A01 T02210195  RH  085%=      5-min Rain = 0
KLE1 131148Z 32005KT 22/19 A2999 RMK A01 T02210194  RH  085%=      5-min Rain = 0
KLE1 131149Z 32005KT 22/19 A2999 RMK A01 T02210194  RH  085%=      5-min Rain = 0
KLE1 131150Z 33004KT 22/19 A2999 RMK A01 T02200194  RH  085%=      5-min Rain = 0
KLE1 131151Z 32004KT 22/19 A2999 RMK A01 T02200194  RH  086%=      5-min Rain = 0
KLE1 131152Z 33006KT 22/19 A2999 RMK A01 T02190194  RH  086%=      5-min Rain = 0
KLE1 131153Z 33006KT 22/19 A2999 RMK A01 T02180194  RH  086%=      5-min Rain = 0
KLE1 131154Z 33006KT 22/19 A2999 RMK A01 T02180193  RH  086%=      5-min Rain = 0
KLE1 131155Z 33007KT 22/19 A2999 RMK A01 T02180193  RH  086%=      5-min Rain = 0
KLE1 131156Z 33006KT 22/19 A2999 RMK A01 T02180193  RH  086%=      5-min Rain = 0
KLE1 131157Z 33006KT 22/19 A2999 RMK A01 T02180193  RH  086%=      5-min Rain = 0
KLE1 131158Z 33006KT 22/19 A2999 RMK A01 T02180193  RH  086%=      5-min Rain = 0
KLE1 131159Z 34005KT 22/19 A2999 RMK A01 T02180193  RH  085%=      5-min Rain = 0
KLE1 131200Z 34005KT 22/19 A2999 RMK A01 T02180193  RH  085%=      5-min Rain = 0
KLE1 131201Z 33005KT 22/19 A2999 RMK A01 T02180193  RH  085%=      5-min Rain = 0
KLE1 131202Z 32005KT 22/19 A2999 RMK A01 T02180193  RH  086%=      5-min Rain = 0
KLE1 131203Z 32004KT 22/19 A2999 RMK A01 T02180193  RH  086%=      5-min Rain = 0
KLE1 131204Z 33004KT 22/19 A2999 RMK A01 T02180193  RH  086%=      5-min Rain = 0
KLE1 131205Z 34006KT 22/19 A2999 RMK A01 T02180193  RH  086%=      5-min Rain = 0
KLE1 131206Z 34006KT 22/20 A30 RMK A01 T02180195  RH  087%=      5-min Rain = 0
KLE1 131207Z 34006KT 22/20 A30 RMK A01 T02170195  RH  087%=      5-min Rain = 0
KLE1 131208Z 34006KT 22/20 A30 RMK A01 T02160195  RH  088%=      5-min Rain = 0
KLE1 131209Z 33006KT 22/20 A30 RMK A01 T02150196  RH  089%=      5-min Rain = 0
KLE1 131210Z 33007KT 21/20 A30 RMK A01 T02140195  RH  089%=      5-min Rain = 0
KLE1 131211Z 33007KT 21/20 A30 RMK A01 T02140195  RH  089%=      5-min Rain = 0
KLE1 131212Z 33007KT 21/20 A30 RMK A01 T02140195  RH  089%=      5-min Rain = 0
KLE1 131213Z 33007KT 21/19 A30 RMK A01 T02140194  RH  088%=      5-min Rain = 0
KLE1 131214Z 33006KT 21/19 A30 RMK A01 T02140193  RH  088%=      5-min Rain = 0
KLE1 131215Z 34006KT 22/19 A30 RMK A01 T02150193  RH  087%=      5-min Rain = 0
KLE1 131216Z 34006KT 22/19 A30 RMK A01 T02150194  RH  087%=      5-min Rain = 0
KLE1 131217Z 34006KT 22/19 A30 RMK A01 T02150194  RH  088%=      5-min Rain = 0
KLE1 131218Z 34005KT 22/19 A30 RMK A01 T02150194  RH  087%=      5-min Rain = 0
KLE1 131219Z 33005KT 22/19 A30 RMK A01 T02150194  RH  087%=      5-min Rain = 0
KLE1 131220Z 33004KT 22/19 A30 RMK A01 T02160194  RH  087%=      5-min Rain = 0
KLE1 131221Z 33004KT 22/19 A30 RMK A01 T02150194  RH  087%=      5-min Rain = 0
KLE1 131222Z 33004KT 22/19 A30 RMK A01 T02160194  RH  088%=      5-min Rain = 0
KLE1 131223Z 33004KT 22/20 A30 RMK A01 T02160195  RH  088%=      5-min Rain = 0
KLE1 131224Z 34004KT 22/20 A30 RMK A01 T02150195  RH  088%=      5-min Rain = 0
KLE1 131225Z 35004KT 22/20 A30 RMK A01 T02150195  RH  088%=      5-min Rain = 0
KLE1 131226Z 34005KT 22/20 A30 RMK A01 T02150195  RH  088%=      5-min Rain = 0
KLE1 131227Z 34006KT 22/20 A30 RMK A01 T02150195  RH  089%=      5-min Rain = 0
KLE1 131228Z 34006KT 22/20 A30 RMK A01 T02160196  RH  088%=      5-min Rain = 0
KLE1 131229Z 35006KT 22/20 A30 RMK A01 T02170196  RH  088%=      5-min Rain = 0
KLE1 131230Z 35007KT 22/20 A30 RMK A01 T02180197  RH  088%=      5-min Rain = 0
KLE1 131231Z 35007KT 22/20 A30 RMK A01 T02180197  RH  088%=      5-min Rain = 0
KLE1 131232Z 34006KT 22/20 A30 RMK A01 T02180197  RH  088%=      5-min Rain = 0
KLE1 131233Z 34006KT 22/20 A30 RMK A01 T02170197  RH  088%=      5-min Rain = 0
KLE1 131234Z 34006KT 22/20 A30 RMK A01 T02170197  RH  088%=      5-min Rain = 0
KLE1 131235Z 34006KT 22/20 A30 RMK A01 T02180197  RH  088%=      5-min Rain = 0
KLE1 131236Z 34006KT 22/20 A30 RMK A01 T02180198  RH  088%=      5-min Rain = 0
KLE1 131237Z 34006KT 22/20 A30 RMK A01 T02190198  RH  088%=      5-min Rain = 0
KLE1 131238Z 35006KT 22/20 A30 RMK A01 T02190199  RH  088%=      5-min Rain = 0
KLE1 131239Z 35006KT 22/20 A30 RMK A01 T02190199  RH  089%=      5-min Rain = 0
KLE1 131240Z 34006KT 22/20 A30 RMK A01 T02190200  RH  089%=      5-min Rain = 0
KLE1 131241Z 34006KT 22/20 A30 RMK A01 T02190200  RH  089%=      5-min Rain = 0
KLE1 131242Z 34007KT 22/20 A30 RMK A01 T02190201  RH  090%=      5-min Rain = 0
KLE1 131243Z 35007KT 22/20 A30 RMK A01 T02180201  RH  090%=      5-min Rain = 0
KLE1 131244Z 36007KT 22/20 A3001 RMK A01 T02180202  RH  091%=      5-min Rain = 0
KLE1 131245Z 36008KT 22/20 A3001 RMK A01 T02180203  RH  091%=      5-min Rain = 0
KLE1 131246Z 00007KT 22/20 A3001 RMK A01 T02180203  RH  091%=      5-min Rain = 0
KLE1 131247Z 35006KT 22/20 A30 RMK A01 T02180203  RH  091%=      5-min Rain = 0
KLE1 131248Z 35006KT 22/20 A30 RMK A01 T02180203  RH  091%=      5-min Rain = 0
KLE1 131249Z 35006KT 22/20 A3001 RMK A01 T02180203  RH  091%=      5-min Rain = 0
KLE1 131250Z 36007KT 22/20 A3001 RMK A01 T02180204  RH  092%=      5-min Rain = 0
KLE1 131251Z 35008KT 22/20 A3001 RMK A01 T02180204  RH  092%=      5-min Rain = 0
KLE1 131252Z 35007KT 22/20 A3001 RMK A01 T02180204  RH  092%=      5-min Rain = 0
KLE1 131253Z 36006KT 22/21 A3001 RMK A01 T02190205  RH  092%=      5-min Rain = 0
KLE1 131254Z 36007KT 22/21 A3001 RMK A01 T02200205  RH  091%=      5-min Rain = 0
KLE1 131255Z 00007KT 22/21 A3001 RMK A01 T02210206  RH  091%=      5-min Rain = 0
KLE1 131256Z 36006KT 22/21 A3001 RMK A01 T02210205  RH  091%=      5-min Rain = 0
KLE1 131257Z 35005KT 22/21 A3001 RMK A01 T02220206  RH  091%=      5-min Rain = 0
KLE1 131258Z 00005KT 22/21 A3001 RMK A01 T02220206  RH  091%=      5-min Rain = 0
KLE1 131259Z 35005KT 22/21 A3001 RMK A01 T02220206  RH  091%=      5-min Rain = 0
KLE1 131300Z 00006KT 22/21 A3001 RMK A01 T02230206  RH  090%=      5-min Rain = 0
KLE1 131301Z 00006KT 22/21 A3001 RMK A01 T02230206  RH  090%=      5-min Rain = 0
KLE1 131302Z 36005KT 22/21 A3001 RMK A01 T02240206  RH  090%=      5-min Rain = 0
KLE1 131303Z 36006KT 22/21 A3001 RMK A01 T02240207  RH  090%=      5-min Rain = 0
KLE1 131304Z 00007KT 22/21 A3001 RMK A01 T02240207  RH  090%=      5-min Rain = 0
KLE1 131305Z 01007KT 23/21 A3001 RMK A01 T02250206  RH  089%=      5-min Rain = 0
KLE1 131306Z 00006KT 23/21 A3001 RMK A01 T02250206  RH  089%=      5-min Rain = 0
KLE1 131307Z 35006KT 23/21 A3001 RMK A01 T02250206  RH  089%=      5-min Rain = 0
KLE1 131308Z 36006KT 23/21 A3001 RMK A01 T02250206  RH  089%=      5-min Rain = 0
KLE1 131309Z 35005KT 23/21 A3001 RMK A01 T02250206  RH  089%=      5-min Rain = 0
KLE1 131310Z 35006KT 23/21 A3001 RMK A01 T02250207  RH  089%=      5-min Rain = 0
KLE1 131311Z 35006KT 23/21 A3001 RMK A01 T02250207  RH  089%=      5-min Rain = 0
KLE1 131312Z 35005KT 23/21 A3001 RMK A01 T02250207  RH  089%=      5-min Rain = 0
KLE1 131313Z 34006KT 23/21 A3001 RMK A01 T02270208  RH  089%=      5-min Rain = 0
KLE1 131314Z 35004KT 23/21 A3001 RMK A01 T02270206  RH  088%=      5-min Rain = 0
KLE1 131315Z 34005KT 23/21 A3002 RMK A01 T02270207  RH  088%=      5-min Rain = 0
KLE1 131316Z 34004KT 23/21 A3002 RMK A01 T02280207  RH  088%=      5-min Rain = 0
KLE1 131317Z 34005KT 23/21 A3002 RMK A01 T02280206  RH  087%=      5-min Rain = 0
KLE1 131318Z 33005KT 23/21 A3002 RMK A01 T02290205  RH  086%=      5-min Rain = 0
KLE1 131319Z 34005KT 23/21 A3002 RMK A01 T02290206  RH  086%=      5-min Rain = 0
KLE1 131320Z 35005KT 23/21 A3002 RMK A01 T02300206  RH  086%=      5-min Rain = 0
KLE1 131321Z 34004KT 23/21 A3002 RMK A01 T02300205  RH  086%=      5-min Rain = 0
KLE1 131322Z 34004KT 23/21 A3002 RMK A01 T02310207  RH  086%=      5-min Rain = 0
KLE1 131323Z 35004KT 23/21 A3002 RMK A01 T02310207  RH  086%=      5-min Rain = 0
KLE1 131324Z 35004KT 23/21 A3002 RMK A01 T02320206  RH  085%=      5-min Rain = 0
KLE1 131325Z 35005KT 23/21 A3002 RMK A01 T02320206  RH  085%=      5-min Rain = 0
KLE1 131326Z 35004KT 23/20 A3002 RMK A01 T02330203  RH  084%=      5-min Rain = 0
KLE1 131327Z 35004KT 23/21 A3002 RMK A01 T02330205  RH  084%=      5-min Rain = 0
KLE1 131328Z 35005KT 23/21 A3002 RMK A01 T02340205  RH  084%=      5-min Rain = 0
KLE1 131329Z 35005KT 23/20 A3002 RMK A01 T02340204  RH  083%=      5-min Rain = 0
KLE1 131330Z 34005KT 24/21 A3002 RMK A01 T02350205  RH  083%=      5-min Rain = 0
KLE1 131331Z 35005KT 24/21 A3002 RMK A01 T02350206  RH  083%=      5-min Rain = 0
KLE1 131332Z 33004KT 24/21 A3002 RMK A01 T02360208  RH  084%=      5-min Rain = 0
KLE1 131333Z 33005KT 24/21 A3002 RMK A01 T02370208  RH  083%=      5-min Rain = 0
KLE1 131334Z 34004KT 24/21 A3002 RMK A01 T02380208  RH  084%=      5-min Rain = 0
KLE1 131335Z 33003KT 24/21 A3002 RMK A01 T02380208  RH  083%=      5-min Rain = 0
KLE1 131336Z 33004KT 24/21 A3002 RMK A01 T02390208  RH  083%=      5-min Rain = 0
KLE1 131337Z 34004KT 24/21 A3002 RMK A01 T02390206  RH  082%=      5-min Rain = 0
KLE1 131338Z 33005KT 24/21 A3002 RMK A01 T02390207  RH  082%=      5-min Rain = 0
KLE1 131339Z 33004KT 24/21 A3002 RMK A01 T02400206  RH  082%=      5-min Rain = 0
KLE1 131340Z 33004KT 24/21 A3002 RMK A01 T02400206  RH  081%=      5-min Rain = 0
KLE1 131341Z 34005KT 24/21 A3002 RMK A01 T02400207  RH  081%=      5-min Rain = 0
KLE1 131342Z 34005KT 24/21 A3003 RMK A01 T02410205  RH  081%=      5-min Rain = 0
KLE1 131343Z 35005KT 24/21 A3003 RMK A01 T02410206  RH  081%=      5-min Rain = 0
KLE1 131344Z 33004KT 24/21 A3002 RMK A01 T02410208  RH  081%=      5-min Rain = 0
KLE1 131345Z 33005KT 24/21 A3002 RMK A01 T02420205  RH  080%=      5-min Rain = 0
KLE1 131346Z 32005KT 24/20 A3002 RMK A01 T02420204  RH  079%=      5-min Rain = 0
KLE1 131347Z 32005KT 24/21 A3002 RMK A01 T02420205  RH  080%=      5-min Rain = 0
KLE1 131348Z 32005KT 24/21 A3002 RMK A01 T02420206  RH  080%=      5-min Rain = 0
KLE1 131349Z 33005KT 24/21 A3002 RMK A01 T02420205  RH  080%=      5-min Rain = 0
KLE1 131350Z 33006KT 24/21 A3002 RMK A01 T02430206  RH  080%=      5-min Rain = 0
KLE1 131351Z 34007KT 24/21 A3002 RMK A01 T02440205  RH  079%=      5-min Rain = 0
KLE1 131352Z 34008KT 24/21 A3003 RMK A01 T02440206  RH  079%=      5-min Rain = 0
KLE1 131353Z 34008KT 25/21 A3003 RMK A01 T02450205  RH  078%=      5-min Rain = 0
KLE1 131354Z 34007KT 25/21 A3003 RMK A01 T02450205  RH  078%=      5-min Rain = 0
KLE1 131355Z 34006KT 25/21 A3003 RMK A01 T02460205  RH  078%=      5-min Rain = 0
KLE1 131356Z 34006KT 25/21 A3003 RMK A01 T02470208  RH  079%=      5-min Rain = 0
KLE1 131357Z 34007KT 25/21 A3003 RMK A01 T02480206  RH  077%=      5-min Rain = 0
KLE1 131358Z 34007KT 25/21 A3003 RMK A01 T02480205  RH  077%=      5-min Rain = 0
KLE1 131359Z 34006KT 25/21 A3003 RMK A01 T02490205  RH  076%=      5-min Rain = 0
KLE1 131400Z 34006KT 25/20 A3003 RMK A01 T02500204  RH  076%=      5-min Rain = 0
KLE1 131401Z 34005KT 25/21 A3003 RMK A01 T02500207  RH  077%=      5-min Rain = 0
KLE1 131402Z 34006KT 25/20 A3003 RMK A01 T02510204  RH  075%=      5-min Rain = 0
KLE1 131403Z 33006KT 25/20 A3003 RMK A01 T02510204  RH  075%=      5-min Rain = 0
KLE1 131404Z 33007KT 25/20 A3003 RMK A01 T02520203  RH  074%=      5-min Rain = 0
KLE1 131405Z 34007KT 25/20 A3003 RMK A01 T02520204  RH  075%=      5-min Rain = 0
KLE1 131406Z 33006KT 25/20 A3003 RMK A01 T02530203  RH  074%=      5-min Rain = 0
KLE1 131407Z 32005KT 25/20 A3003 RMK A01 T02530203  RH  074%=      5-min Rain = 0
KLE1 131408Z 34005KT 25/20 A3003 RMK A01 T02540203  RH  074%=      5-min Rain = 0
KLE1 131409Z 33004KT 26/21 A3003 RMK A01 T02550205  RH  074%=      5-min Rain = 0
KLE1 131410Z 33003KT 26/21 A3003 RMK A01 T02560207  RH  074%=      5-min Rain = 0
KLE1 131411Z 32004KT 26/21 A3003 RMK A01 T02580208  RH  074%=      5-min Rain = 0
KLE1 131412Z 32006KT 26/20 A3003 RMK A01 T02590202  RH  071%=      5-min Rain = 0
KLE1 131413Z 34005KT 26/20 A3003 RMK A01 T02590204  RH  071%=      5-min Rain = 0
KLE1 131414Z 33005KT 26/21 A3003 RMK A01 T02600205  RH  071%=      5-min Rain = 0
KLE1 131415Z 33004KT 26/20 A3003 RMK A01 T02610204  RH  071%=      5-min Rain = 0
KLE1 131416Z 34005KT 26/21 A3003 RMK A01 T02620206  RH  071%=      5-min Rain = 0
KLE1 131417Z 34006KT 26/20 A3003 RMK A01 T02630203  RH  070%=      5-min Rain = 0
KLE1 131418Z 34004KT 26/20 A3003 RMK A01 T02630202  RH  069%=      5-min Rain = 0
KLE1 131419Z 33005KT 26/20 A3003 RMK A01 T02630204  RH  070%=      5-min Rain = 0
KLE1 131420Z 33005KT 26/20 A3003 RMK A01 T02630203  RH  069%=      5-min Rain = 0
KLE1 131421Z 33005KT 26/20 A3003 RMK A01 T02640204  RH  070%=      5-min Rain = 0
KLE1 131422Z 34006KT 26/20 A3003 RMK A01 T02640204  RH  069%=      5-min Rain = 0
KLE1 131423Z 35006KT 27/20 A3003 RMK A01 T02650202  RH  068%=      5-min Rain = 0
KLE1 131424Z 35006KT 27/20 A3003 RMK A01 T02660201  RH  067%=      5-min Rain = 0
KLE1 131425Z 35006KT 27/20 A3003 RMK A01 T02660200  RH  067%=      5-min Rain = 0
KLE1 131426Z 34005KT 27/20 A3003 RMK A01 T02660200  RH  067%=      5-min Rain = 0
KLE1 131427Z 34005KT 27/20 A3003 RMK A01 T02660201  RH  067%=      5-min Rain = 0
KLE1 131428Z 35005KT 27/20 A3003 RMK A01 T02670201  RH  067%=      5-min Rain = 0
KLE1 131429Z 35006KT 27/20 A3003 RMK A01 T02680203  RH  067%=      5-min Rain = 0
KLE1 131430Z 33005KT 27/20 A3003 RMK A01 T02690203  RH  067%=      5-min Rain = 0
KLE1 131431Z 33003KT 27/21 A3004 RMK A01 T02710206  RH  068%=      5-min Rain = 0
KLE1 131432Z 34004KT 27/21 A3004 RMK A01 T02730205  RH  067%=      5-min Rain = 0
KLE1 131433Z 36005KT 27/20 A3004 RMK A01 T02730202  RH  065%=      5-min Rain = 0
KLE1 131434Z 34004KT 27/20 A3004 RMK A01 T02730203  RH  065%=      5-min Rain = 0
KLE1 131435Z 35004KT 27/20 A3004 RMK A01 T02740201  RH  065%=      5-min Rain = 0
KLE1 131436Z 34004KT 28/20 A3004 RMK A01 T02750201  RH  064%=      5-min Rain = 0
KLE1 131437Z 33003KT 28/20 A3004 RMK A01 T02750200  RH  064%=      5-min Rain = 0
KLE1 131438Z 32003KT 28/20 A3004 RMK A01 T02750201  RH  064%=      5-min Rain = 0
KLE1 131439Z 32003KT 28/20 A3004 RMK A01 T02750203  RH  065%=      5-min Rain = 0
KLE1 131440Z 33004KT 28/20 A3004 RMK A01 T02760203  RH  064%=      5-min Rain = 0
KLE1 131441Z 32004KT 28/20 A3004 RMK A01 T02770204  RH  064%=      5-min Rain = 0
KLE1 131442Z 33003KT 28/20 A3004 RMK A01 T02790202  RH  063%=      5-min Rain = 0
KLE1 131443Z 32003KT 28/20 A3004 RMK A01 T02790201  RH  063%=      5-min Rain = 0
KLE1 131444Z 31004KT 28/20 A3004 RMK A01 T02790201  RH  063%=      5-min Rain = 0
KLE1 131445Z 31003KT 28/20 A3004 RMK A01 T02790200  RH  062%=      5-min Rain = 0
KLE1 131446Z 29003KT 28/20 A3004 RMK A01 T02780201  RH  063%=      5-min Rain = 0
KLE1 131447Z 30003KT 28/21 A3004 RMK A01 T02780205  RH  064%=      5-min Rain = 0
KLE1 131448Z 36005KT 28/20 A3004 RMK A01 T02780203  RH  064%=      5-min Rain = 0
KLE1 131449Z 00005KT 28/20 A3004 RMK A01 T02790199  RH  062%=      5-min Rain = 0
KLE1 131450Z 35004KT 28/20 A3004 RMK A01 T02790199  RH  062%=      5-min Rain = 0
KLE1 131451Z 01004KT 28/20 A3004 RMK A01 T02800199  RH  061%=      5-min Rain = 0
KLE1 131452Z 36003KT 28/20 A3004 RMK A01 T02810201  RH  062%=      5-min Rain = 0
KLE1 131453Z 01004KT 28/20 A3004 RMK A01 T02830199  RH  061%=      5-min Rain = 0
KLE1 131454Z 33004KT 28/20 A3004 RMK A01 T02840200  RH  060%=      5-min Rain = 0
KLE1 131455Z 34004KT 29/20 A3004 RMK A01 T02850198  RH  059%=      5-min Rain = 0
KLE1 131456Z 35006KT 29/20 A3004 RMK A01 T02850201  RH  060%=      5-min Rain = 0
KLE1 131457Z 35004KT 29/20 A3004 RMK A01 T02850197  RH  059%=      5-min Rain = 0
KLE1 131458Z 00004KT 29/20 A3004 RMK A01 T02850197  RH  059%=      5-min Rain = 0
KLE1 131459Z 34004KT 29/20 A3004 RMK A01 T02850196  RH  058%=      5-min Rain = 0
KLE1 131500Z 33004KT 29/20 A3004 RMK A01 T02850198  RH  059%=      5-min Rain = 0
KLE1 131501Z 35005KT 29/20 A3004 RMK A01 T02850196  RH  059%=      5-min Rain = 0
KLE1 131502Z 01004KT 29/20 A3004 RMK A01 T02850197  RH  059%=      5-min Rain = 0
KLE1 131503Z 35003KT 29/20 A3004 RMK A01 T02850195  RH  058%=      5-min Rain = 0
KLE1 131504Z 35004KT 29/20 A3004 RMK A01 T02850198  RH  059%=      5-min Rain = 0
KLE1 131505Z 35005KT 29/20 A3004 RMK A01 T02860197  RH  058%=      5-min Rain = 0
KLE1 131506Z 34005KT 29/20 A3004 RMK A01 T02880195  RH  057%=      5-min Rain = 0
KLE1 131507Z 36005KT 29/19 A3004 RMK A01 T02880194  RH  057%=      5-min Rain = 0
KLE1 131508Z 35005KT 29/20 A3004 RMK A01 T02870196  RH  058%=      5-min Rain = 0
KLE1 131509Z 34003KT 29/20 A3004 RMK A01 T02890198  RH  058%=      5-min Rain = 0
KLE1 131510Z 33002KT 29/20 A3004 RMK A01 T02910196  RH  057%=      5-min Rain = 0
KLE1 131511Z 33003KT 29/20 A3004 RMK A01 T02920195  RH  056%=      5-min Rain = 0
KLE1 131512Z 35004KT 29/20 A3004 RMK A01 T02920195  RH  056%=      5-min Rain = 0
KLE1 131513Z 36004KT 29/20 A3004 RMK A01 T02920195  RH  056%=      5-min Rain = 0
KLE1 131514Z 01004KT 29/20 A3004 RMK A01 T02910195  RH  056%=      5-min Rain = 0
KLE1 131515Z 35005KT 29/20 A3004 RMK A01 T02910197  RH  057%=      5-min Rain = 0
KLE1 131516Z 35007KT 29/20 A3004 RMK A01 T02920196  RH  056%=      5-min Rain = 0
KLE1 131517Z 36006KT 29/19 A3004 RMK A01 T02920194  RH  056%=      5-min Rain = 0
KLE1 131518Z 36005KT 29/20 A3004 RMK A01 T02930195  RH  056%=      5-min Rain = 0
KLE1 131519Z 01005KT 29/20 A3004 RMK A01 T02940195  RH  055%=      5-min Rain = 0
KLE1 131520Z 01005KT 30/20 A3004 RMK A01 T02950200  RH  057%=      5-min Rain = 0
KLE1 131521Z 01005KT 30/20 A3004 RMK A01 T02980198  RH  055%=      5-min Rain = 0
KLE1 131522Z 36003KT 30/20 A3004 RMK A01 T02980199  RH  055%=      5-min Rain = 0
KLE1 131523Z 01003KT 30/20 A3004 RMK A01 T02970197  RH  055%=      5-min Rain = 0
KLE1 131524Z 00005KT 30/20 A3004 RMK A01 T02970199  RH  056%=      5-min Rain = 0
KLE1 131525Z 34003KT 30/20 A3004 RMK A01 T02980199  RH  055%=      5-min Rain = 0
KLE1 131526Z 35004KT 30/20 A3004 RMK A01 T02990198  RH  055%=      5-min Rain = 0
KLE1 131527Z 01004KT 30/19 A3004 RMK A01 T03010193  RH  052%=      5-min Rain = 0
KLE1 131528Z 36004KT 30/19 A3004 RMK A01 T03000192  RH  052%=      5-min Rain = 0
KLE1 131529Z 36006KT 30/19 A3004 RMK A01 T03000193  RH  053%=      5-min Rain = 0
KLE1 131530Z 00004KT 30/19 A3004 RMK A01 T02990192  RH  053%=      5-min Rain = 0
KLE1 131531Z 01006KT 30/19 A3004 RMK A01 T02990193  RH  053%=      5-min Rain = 0
KLE1 131532Z 01006KT 30/19 A3004 RMK A01 T03000192  RH  052%=      5-min Rain = 0
KLE1 131533Z 03006KT 30/19 A3004 RMK A01 T03020189  RH  051%=      5-min Rain = 0
KLE1 131534Z 02006KT 30/19 A3004 RMK A01 T03020190  RH  051%=      5-min Rain = 0
KLE1 131535Z 01005KT 30/19 A3004 RMK A01 T03030190  RH  051%=      5-min Rain = 0
KLE1 131536Z 02005KT 30/19 A3004 RMK A01 T03020191  RH  051%=      5-min Rain = 0
KLE1 131537Z 02002KT 30/19 A3004 RMK A01 T03020191  RH  051%=      5-min Rain = 0
KLE1 131538Z 03006KT 30/20 A3004 RMK A01 T03020195  RH  053%=      5-min Rain = 0
KLE1 131539Z 35005KT 30/20 A3004 RMK A01 T03040196  RH  052%=      5-min Rain = 0
KLE1 131540Z 35006KT 31/20 A3004 RMK A01 T03060197  RH  052%=      5-min Rain = 0
KLE1 131541Z 36004KT 31/19 A3004 RMK A01 T03060190  RH  050%=      5-min Rain = 0
KLE1 131542Z 02003KT 30/19 A3004 RMK A01 T03030188  RH  050%=      5-min Rain = 0
KLE1 131543Z 01003KT 30/19 A3004 RMK A01 T03020194  RH  052%=      5-min Rain = 0
KLE1 131544Z 01005KT 30/19 A3004 RMK A01 T03040193  RH  051%=      5-min Rain = 0
KLE1 131545Z 03004KT 31/20 A3004 RMK A01 T03050197  RH  052%=      5-min Rain = 0
KLE1 131546Z 01003KT 31/19 A3004 RMK A01 T03060191  RH  050%=      5-min Rain = 0
KLE1 131547Z 05002KT 31/20 A3004 RMK A01 T03060196  RH  052%=      5-min Rain = 0
KLE1 131548Z 06000KT 31/20 A3004 RMK A01 T03070195  RH  051%=      5-min Rain = 0
KLE1 131549Z 01003KT 31/20 A3004 RMK A01 T03090195  RH  051%=      5-min Rain = 0
KLE1 131550Z 01001KT 31/20 A3004 RMK A01 T03100196  RH  051%=      5-min Rain = 0
KLE1 131551Z 06001KT 31/20 A3004 RMK A01 T03110200  RH  052%=      5-min Rain = 0
KLE1 131552Z 02003KT 31/20 A3004 RMK A01 T03130196  RH  050%=      5-min Rain = 0
KLE1 131553Z 03005KT 31/19 A3004 RMK A01 T03130192  RH  048%=      5-min Rain = 0
KLE1 131554Z 03004KT 31/19 A3004 RMK A01 T03140189  RH  048%=      5-min Rain = 0
KLE1 131555Z 03002KT 31/19 A3004 RMK A01 T03120185  RH  047%=      5-min Rain = 0
KLE1 131556Z 04002KT 31/19 A3004 RMK A01 T03100186  RH  048%=      5-min Rain = 0
KLE1 131557Z 04003KT 31/19 A3004 RMK A01 T03100188  RH  048%=      5-min Rain = 0
KLE1 131558Z 04003KT 31/19 A3004 RMK A01 T03100190  RH  049%=      5-min Rain = 0
KLE1 131559Z 03005KT 31/19 A3004 RMK A01 T03110191  RH  049%=      5-min Rain = 0
KLE1 131600Z 05007KT 31/19 A3004 RMK A01 T03130191  RH  049%=      5-min Rain = 0
KLE1 131601Z 08008KT 31/19 A3004 RMK A01 T03130190  RH  048%=      5-min Rain = 0
KLE1 131602Z 08008KT 31/20 A3004 RMK A01 T03130195  RH  050%=      5-min Rain = 0
KLE1 131603Z 08008KT 31/20 A3004 RMK A01 T03130201  RH  051%=      5-min Rain = 0
KLE1 131604Z 08010KT 32/20 A3004 RMK A01 T03150197  RH  049%=      5-min Rain = 0
KLE1 131605Z 09009KT 32/20 A3004 RMK A01 T03150201  RH  051%=      5-min Rain = 0
KLE1 131606Z 09009KT 32/20 A3004 RMK A01 T03150204  RH  052%=      5-min Rain = 0
KLE1 131607Z 09010KT 32/20 A3004 RMK A01 T03150197  RH  050%=      5-min Rain = 0
KLE1 131608Z 10009KT 31/19 A3004 RMK A01 T03130194  RH  049%=      5-min Rain = 0
KLE1 131609Z 10011KT 31/19 A3004 RMK A01 T03110193  RH  050%=      5-min Rain = 0
KLE1 131610Z 10009KT 31/19 A3005 RMK A01 T03100192  RH  049%=      5-min Rain = 0
KLE1 131611Z 10008KT 31/19 A3005 RMK A01 T03100192  RH  049%=      5-min Rain = 0
KLE1 131612Z 10009KT 31/20 A3005 RMK A01 T03100196  RH  051%=      5-min Rain = 0
KLE1 131613Z 09010KT 31/20 A3005 RMK A01 T03110196  RH  050%=      5-min Rain = 0
KLE1 131614Z 08009KT 31/19 A3005 RMK A01 T03110194  RH  050%=      5-min Rain = 0
KLE1 131615Z 09009KT 31/20 A3005 RMK A01 T03120196  RH  050%=      5-min Rain = 0
KLE1 131616Z 09012KT 31/20 A3005 RMK A01 T03120203  RH  052%=      5-min Rain = 0
KLE1 131617Z 09012KT 31/20 A3005 RMK A01 T03120201  RH  052%=      5-min Rain = 0
KLE1 131618Z 09011KT 31/20 A3005 RMK A01 T03110198  RH  051%=      5-min Rain = 0
KLE1 131619Z 09009KT 31/20 A3005 RMK A01 T03070199  RH  053%=      5-min Rain = 0
KLE1 131620Z 09010KT 31/20 A3005 RMK A01 T03070198  RH  052%=      5-min Rain = 0
KLE1 131621Z 09009KT 31/20 A3005 RMK A01 T03060196  RH  052%=      5-min Rain = 0
KLE1 131622Z 10008KT 30/20 A3005 RMK A01 T03040198  RH  053%=      5-min Rain = 0
KLE1 131623Z 12011KT 30/20 A3005 RMK A01 T03030201  RH  054%=      5-min Rain = 0
KLE1 131624Z 11010KT 31/20 A3005 RMK A01 T03050203  RH  055%=      5-min Rain = 0
KLE1 131625Z 12010KT 31/20 A3005 RMK A01 T03070200  RH  053%=      5-min Rain = 0
KLE1 131626Z 11011KT 31/20 A3005 RMK A01 T03080204  RH  054%=      5-min Rain = 0
KLE1 131627Z 10011KT 31/21 A3005 RMK A01 T03090205  RH  054%=      5-min Rain = 0
KLE1 131628Z 08010KT 31/20 A3005 RMK A01 T03100201  RH  052%=      5-min Rain = 0
KLE1 131629Z 08009KT 31/20 A3005 RMK A01 T03100199  RH  052%=      5-min Rain = 0
KLE1 131630Z 09009KT 31/20 A3005 RMK A01 T03100201  RH  052%=      5-min Rain = 0
KLE1 131631Z 09008KT 31/20 A3005 RMK A01 T03110201  RH  052%=      5-min Rain = 0
KLE1 131632Z 09009KT 31/20 A3005 RMK A01 T03110198  RH  051%=      5-min Rain = 0
KLE1 131633Z 09010KT 31/20 A3005 RMK A01 T03100200  RH  052%=      5-min Rain = 0
KLE1 131634Z 10010KT 31/20 A3005 RMK A01 T03090203  RH  053%=      5-min Rain = 0
KLE1 131635Z 10008KT 31/20 A3005 RMK A01 T03090204  RH  054%=      5-min Rain = 0
KLE1 131636Z 09009KT 31/21 A3005 RMK A01 T03110207  RH  054%=      5-min Rain = 0
KLE1 131637Z 10012KT 31/21 A3005 RMK A01 T03140205  RH  052%=      5-min Rain = 0
KLE1 131638Z 09010KT 31/20 A3005 RMK A01 T03130203  RH  052%=      5-min Rain = 0
KLE1 131639Z 10010KT 31/20 A3005 RMK A01 T03110200  RH  052%=      5-min Rain = 0
KLE1 131640Z 10010KT 31/20 A3005 RMK A01 T03090202  RH  053%=      5-min Rain = 0
KLE1 131641Z 10010KT 31/20 A3005 RMK A01 T03080203  RH  054%=      5-min Rain = 0
KLE1 131642Z 11008KT 31/20 A3005 RMK A01 T03080203  RH  054%=      5-min Rain = 0
KLE1 131643Z 11008KT 31/20 A3005 RMK A01 T03080201  RH  053%=      5-min Rain = 0
KLE1 131644Z 12010KT 31/21 A3005 RMK A01 T03080205  RH  054%=      5-min Rain = 0
KLE1 131645Z 12010KT 31/21 A3005 RMK A01 T03090208  RH  055%=      5-min Rain = 0
KLE1 131646Z 12009KT 31/21 A3005 RMK A01 T03100205  RH  053%=      5-min Rain = 0
KLE1 131647Z 10009KT 31/21 A3005 RMK A01 T03100206  RH  054%=      5-min Rain = 0
KLE1 131648Z 08010KT 31/21 A3005 RMK A01 T03100207  RH  054%=      5-min Rain = 0
KLE1 131649Z 10010KT 31/21 A3005 RMK A01 T03120207  RH  054%=      5-min Rain = 0
KLE1 131650Z 10008KT 31/21 A3005 RMK A01 T03130208  RH  054%=      5-min Rain = 0
KLE1 131651Z 09011KT 31/21 A3005 RMK A01 T03130207  RH  053%=      5-min Rain = 0
KLE1 131652Z 09008KT 31/20 A3005 RMK A01 T03090203  RH  053%=      5-min Rain = 0
KLE1 131653Z 11009KT 31/21 A3005 RMK A01 T03070207  RH  055%=      5-min Rain = 0
KLE1 131654Z 11010KT 31/21 A3005 RMK A01 T03090211  RH  056%=      5-min Rain = 0
KLE1 131655Z 10010KT 31/21 A3005 RMK A01 T03130210  RH  054%=      5-min Rain = 0
KLE1 131656Z 10011KT 31/21 A3005 RMK A01 T03130209  RH  054%=      5-min Rain = 0
KLE1 131657Z 11013KT 31/21 A3005 RMK A01 T03120208  RH  054%=      5-min Rain = 0
KLE1 131658Z 09011KT 31/21 A3005 RMK A01 T03110209  RH  055%=      5-min Rain = 0
KLE1 131659Z 09011KT 31/21 A3005 RMK A01 T03110206  RH  054%=      5-min Rain = 0
KLE1 131700Z 10011KT 31/21 A3005 RMK A01 T03100205  RH  054%=      5-min Rain = 0
KLE1 131701Z 09012KT 31/21 A3005 RMK A01 T03090208  RH  055%=      5-min Rain = 0
KLE1 131702Z 09011KT 31/21 A3005 RMK A01 T03100206  RH  054%=      5-min Rain = 0
KLE1 131703Z 11010KT 31/21 A3005 RMK A01 T03100207  RH  054%=      5-min Rain = 0
KLE1 131704Z 11011KT 31/21 A3005 RMK A01 T03110206  RH  054%=      5-min Rain = 0
KLE1 131705Z 11012G18KT 31/21 A3005 RMK A01 T03100208  RH  055%=      5-min Rain = 0
KLE1 131706Z 10013KT 31/21 A3005 RMK A01 T03120210  RH  055%=      5-min Rain = 0
KLE1 131707Z 10012KT 31/21 A3005 RMK A01 T03120207  RH  054%=      5-min Rain = 0
KLE1 131708Z 10013KT 31/21 A3005 RMK A01 T03100207  RH  054%=      5-min Rain = 0
KLE1 131709Z 11012KT 31/21 A3005 RMK A01 T03080210  RH  056%=      5-min Rain = 0
KLE1 131710Z 11011KT 31/21 A3005 RMK A01 T03080208  RH  055%=      5-min Rain = 0
KLE1 131711Z 10013KT 31/21 A3005 RMK A01 T03090210  RH  056%=      5-min Rain = 0
KLE1 131712Z 09012KT 31/21 A3005 RMK A01 T03110210  RH  055%=      5-min Rain = 0
KLE1 131713Z 09014KT 31/21 A3005 RMK A01 T03140208  RH  053%=      5-min Rain = 0
KLE1 131714Z 10012KT 31/21 A3005 RMK A01 T03130208  RH  054%=      5-min Rain = 0
KLE1 131715Z 10012KT 31/21 A3005 RMK A01 T03130211  RH  055%=      5-min Rain = 0
KLE1 131716Z 09014KT 31/21 A3005 RMK A01 T03140210  RH  054%=      5-min Rain = 0
KLE1 131717Z 11012KT 31/21 A3005 RMK A01 T03140211  RH  055%=      5-min Rain = 0
KLE1 131718Z 12013KT 31/21 A3005 RMK A01 T03130208  RH  054%=      5-min Rain = 0
KLE1 131719Z 10014KT 31/21 A3005 RMK A01 T03120210  RH  054%=      5-min Rain = 0
KLE1 131720Z 09014KT 31/21 A3005 RMK A01 T03140209  RH  054%=      5-min Rain = 0
KLE1 131721Z 09014KT 32/21 A3005 RMK A01 T03150211  RH  054%=      5-min Rain = 0
KLE1 131722Z 10014KT 32/21 A3005 RMK A01 T03150208  RH  053%=      5-min Rain = 0
KLE1 131723Z 11012KT 31/21 A3005 RMK A01 T03130209  RH  054%=      5-min Rain = 0
KLE1 131724Z 09013KT 31/21 A3005 RMK A01 T03140210  RH  054%=      5-min Rain = 0
KLE1 131725Z 10010KT 32/21 A3005 RMK A01 T03150207  RH  053%=      5-min Rain = 0
KLE1 131726Z 11011KT 31/21 A3005 RMK A01 T03140208  RH  053%=      5-min Rain = 0
KLE1 131727Z 10014KT 32/21 A3005 RMK A01 T03150207  RH  053%=      5-min Rain = 0
KLE1 131728Z 10012KT 31/21 A3005 RMK A01 T03140208  RH  053%=      5-min Rain = 0
KLE1 131729Z 09014KT 31/21 A3005 RMK A01 T03140208  RH  053%=      5-min Rain = 0
KLE1 131730Z 10014KT 31/21 A3005 RMK A01 T03140207  RH  053%=      5-min Rain = 0
KLE1 131731Z 10014KT 31/21 A3005 RMK A01 T03130207  RH  053%=      5-min Rain = 0
KLE1 131732Z 10015KT 31/21 A3005 RMK A01 T03120206  RH  053%=      5-min Rain = 0
KLE1 131733Z 09014KT 31/21 A3005 RMK A01 T03110207  RH  054%=      5-min Rain = 0
KLE1 131734Z 09013KT 31/21 A3005 RMK A01 T03100208  RH  054%=      5-min Rain = 0
KLE1 131735Z 09012KT 31/21 A3005 RMK A01 T03130207  RH  053%=      5-min Rain = 0
KLE1 131736Z 10013KT 31/21 A3005 RMK A01 T03140207  RH  053%=      5-min Rain = 0
KLE1 131737Z 10016KT 32/21 A3005 RMK A01 T03150207  RH  053%=      5-min Rain = 0
KLE1 131738Z 09015KT 32/21 A3005 RMK A01 T03150205  RH  052%=      5-min Rain = 0
KLE1 131739Z 08012KT 32/21 A3005 RMK A01 T03150206  RH  053%=      5-min Rain = 0
KLE1 131740Z 09012KT 32/21 A3005 RMK A01 T03160208  RH  053%=      5-min Rain = 0
KLE1 131741Z 09014KT 32/20 A3005 RMK A01 T03170204  RH  051%=      5-min Rain = 0
KLE1 131742Z 09012KT 32/20 A3005 RMK A01 T03160204  RH  051%=      5-min Rain = 0
KLE1 131743Z 08013KT 32/20 A3005 RMK A01 T03160198  RH  050%=      5-min Rain = 0
KLE1 131744Z 08013KT 32/20 A3005 RMK A01 T03150197  RH  050%=      5-min Rain = 0
KLE1 131745Z 09013KT 32/19 A3005 RMK A01 T03170193  RH  048%=      5-min Rain = 0
KLE1 131746Z 08014KT 32/20 A3005 RMK A01 T03180197  RH  049%=      5-min Rain = 0
KLE1 131747Z 06012KT 32/20 A3005 RMK A01 T03180198  RH  049%=      5-min Rain = 0
KLE1 131748Z 08013KT 32/20 A3004 RMK A01 T03190196  RH  048%=      5-min Rain = 0
KLE1 131749Z 09013KT 32/19 A3004 RMK A01 T03200192  RH  047%=      5-min Rain = 0
KLE1 131750Z 09013KT 32/19 A3004 RMK A01 T03190192  RH  047%=      5-min Rain = 0
KLE1 131751Z 09012KT 32/19 A3005 RMK A01 T03190192  RH  047%=      5-min Rain = 0
KLE1 131752Z 09012KT 32/20 A3005 RMK A01 T03170195  RH  048%=      5-min Rain = 0
KLE1 131753Z 09014KT 32/20 A3005 RMK A01 T03180195  RH  048%=      5-min Rain = 0
KLE1 131754Z 09011KT 32/19 A3005 RMK A01 T03180194  RH  048%=      5-min Rain = 0
KLE1 131755Z 09013KT 32/19 A3004 RMK A01 T03170192  RH  048%=      5-min Rain = 0
KLE1 131756Z 10014KT 32/20 A3004 RMK A01 T03170195  RH  048%=      5-min Rain = 0
KLE1 131757Z 10013KT 32/19 A3004 RMK A01 T03190194  RH  048%=      5-min Rain = 0
KLE1 131758Z 08014KT 32/20 A3004 RMK A01 T03210195  RH  047%=      5-min Rain = 0
KLE1 131759Z 08014KT 32/19 A3004 RMK A01 T03220191  RH  046%=      5-min Rain = 0
KLE1 131800Z 08013G18KT 32/19 A3004 RMK A01 T03190190  RH  046%=      5-min Rain = 0
KLE1 131801Z 09014KT 32/19 A3004 RMK A01 T03190193  RH  047%=      5-min Rain = 0
KLE1 131802Z 09011KT 32/19 A3004 RMK A01 T03210193  RH  047%=      5-min Rain = 0
KLE1 131803Z 09012KT 32/19 A3004 RMK A01 T03220193  RH  047%=      5-min Rain = 0
KLE1 131804Z 09012KT 32/19 A3004 RMK A01 T03210191  RH  046%=      5-min Rain = 0
KLE1 131805Z 09012KT 32/19 A3004 RMK A01 T03210189  RH  046%=      5-min Rain = 0
KLE1 131806Z 10013KT 32/19 A3004 RMK A01 T03200188  RH  046%=      5-min Rain = 0
KLE1 131807Z 08013KT 32/19 A3004 RMK A01 T03200190  RH  046%=      5-min Rain = 0
KLE1 131808Z 07009KT 32/19 A3004 RMK A01 T03180187  RH  046%=      5-min Rain = 0
KLE1 131809Z 11012KT 32/19 A3004 RMK A01 T03180192  RH  047%=      5-min Rain = 0
KLE1 131810Z 11014KT 32/19 A3004 RMK A01 T03200192  RH  047%=      5-min Rain = 0
KLE1 131811Z 11014KT 32/19 A3004 RMK A01 T03210191  RH  046%=      5-min Rain = 0
KLE1 131812Z 10014KT 32/19 A3004 RMK A01 T03220193  RH  046%=      5-min Rain = 0
KLE1 131813Z 09014KT 32/19 A3004 RMK A01 T03220194  RH  047%=      5-min Rain = 0
KLE1 131814Z 11013KT 32/20 A3004 RMK A01 T03220195  RH  047%=      5-min Rain = 0
KLE1 131815Z 11012KT 32/20 A3004 RMK A01 T03220196  RH  047%=      5-min Rain = 0
KLE1 131816Z 10012KT 32/19 A3004 RMK A01 T03230194  RH  047%=      5-min Rain = 0
KLE1 131817Z 10012KT 32/19 A3004 RMK A01 T03220193  RH  047%=      5-min Rain = 0
KLE1 131818Z 10013KT 32/20 A3004 RMK A01 T03220195  RH  047%=      5-min Rain = 0
KLE1 131819Z 10015KT 32/19 A3004 RMK A01 T03230194  RH  046%=      5-min Rain = 0
KLE1 131820Z 09012KT 32/19 A3004 RMK A01 T03220192  RH  046%=      5-min Rain = 0
KLE1 131821Z 08013KT 32/19 A3004 RMK A01 T03220193  RH  046%=      5-min Rain = 0
KLE1 131822Z 09015KT 33/20 A3004 RMK A01 T03250196  RH  046%=      5-min Rain = 0
KLE1 131823Z 08014KT 33/19 A3004 RMK A01 T03250192  RH  046%=      5-min Rain = 0
KLE1 131824Z 09011KT 32/20 A3004 RMK A01 T03230195  RH  047%=      5-min Rain = 0
KLE1 131825Z 09011KT 33/19 A3004 RMK A01 T03260194  RH  046%=      5-min Rain = 0
KLE1 131826Z 08008KT 33/19 A3004 RMK A01 T03250191  RH  045%=      5-min Rain = 0
KLE1 131827Z 08008KT 32/19 A3004 RMK A01 T03210192  RH  046%=      5-min Rain = 0
KLE1 131828Z 09010KT 32/19 A3004 RMK A01 T03220194  RH  047%=      5-min Rain = 0
KLE1 131829Z 10013KT 33/19 A3004 RMK A01 T03260193  RH  045%=      5-min Rain = 0
KLE1 131830Z 09014KT 33/19 A3004 RMK A01 T03270194  RH  045%=      5-min Rain = 0
KLE1 131831Z 07013KT 33/19 A3004 RMK A01 T03280194  RH  045%=      5-min Rain = 0
KLE1 131832Z 10012KT 33/19 A3004 RMK A01 T03280194  RH  045%=      5-min Rain = 0
KLE1 131833Z 09011KT 33/19 A3004 RMK A01 T03270192  RH  045%=      5-min Rain = 0
KLE1 131834Z 11009KT 32/19 A3004 RMK A01 T03240191  RH  045%=      5-min Rain = 0
KLE1 131835Z 10010KT 32/19 A3004 RMK A01 T03220194  RH  047%=      5-min Rain = 0
KLE1 131836Z 11009KT 33/20 A3004 RMK A01 T03270198  RH  047%=      5-min Rain = 0
KLE1 131837Z 10012KT 33/20 A3004 RMK A01 T03300195  RH  045%=      5-min Rain = 0
KLE1 131838Z 10012KT 33/19 A3004 RMK A01 T03270194  RH  045%=      5-min Rain = 0
KLE1 131839Z 09013KT 33/20 A3004 RMK A01 T03260195  RH  046%=      5-min Rain = 0
KLE1 131840Z 09014KT 33/19 A3004 RMK A01 T03270192  RH  045%=      5-min Rain = 0
KLE1 131841Z 09014KT 33/19 A3004 RMK A01 T03260190  RH  045%=      5-min Rain = 0
KLE1 131842Z 09015KT 32/19 A3004 RMK A01 T03240191  RH  046%=      5-min Rain = 0
KLE1 131843Z 09015KT 32/19 A3004 RMK A01 T03240191  RH  045%=      5-min Rain = 0
KLE1 131844Z 10013KT 32/19 A3004 RMK A01 T03230191  RH  046%=      5-min Rain = 0
KLE1 131845Z 10012KT 32/19 A3004 RMK A01 T03220192  RH  046%=      5-min Rain = 0
KLE1 131846Z 10013KT 32/19 A3004 RMK A01 T03230192  RH  046%=      5-min Rain = 0
KLE1 131847Z 11013KT 32/19 A3004 RMK A01 T03240192  RH  046%=      5-min Rain = 0
KLE1 131848Z 11013KT 32/19 A3004 RMK A01 T03240194  RH  046%=      5-min Rain = 0
KLE1 131849Z 09013KT 32/20 A3004 RMK A01 T03230197  RH  047%=      5-min Rain = 0
KLE1 131850Z 09011KT 32/20 A3004 RMK A01 T03240198  RH  047%=      5-min Rain = 0
KLE1 131851Z 10011KT 33/20 A3004 RMK A01 T03260198  RH  047%=      5-min Rain = 0
KLE1 131852Z 09012KT 33/20 A3004 RMK A01 T03260195  RH  046%=      5-min Rain = 0
KLE1 131853Z 09013G19KT 33/20 A3004 RMK A01 T03250199  RH  047%=      5-min Rain = 0
KLE1 131854Z 09012KT 33/20 A3004 RMK A01 T03290198  RH  046%=      5-min Rain = 0
KLE1 131855Z 09015KT 33/20 A3004 RMK A01 T03300197  RH  046%=      5-min Rain = 0
KLE1 131856Z 08013KT 33/19 A3004 RMK A01 T03290193  RH  045%=      5-min Rain = 0
KLE1 131857Z 09012KT 33/19 A3004 RMK A01 T03260191  RH  045%=      5-min Rain = 0
KLE1 131858Z 09014KT 32/19 A3004 RMK A01 T03240192  RH  046%=      5-min Rain = 0
KLE1 131859Z 10012KT 33/19 A3004 RMK A01 T03260190  RH  045%=      5-min Rain = 0
KLE1 131900Z 10008KT 33/19 A3004 RMK A01 T03250191  RH  045%=      5-min Rain = 0
KLE1 131901Z 10010KT 33/19 A3004 RMK A01 T03250194  RH  046%=      5-min Rain = 0
KLE1 131902Z 08014KT 33/20 A3004 RMK A01 T03300195  RH  045%=      5-min Rain = 0
KLE1 131903Z 10015KT 33/19 A3004 RMK A01 T03320189  RH  043%=      5-min Rain = 0
KLE1 131904Z 10015KT 33/19 A3004 RMK A01 T03290189  RH  043%=      5-min Rain = 0
KLE1 131905Z 10011KT 33/19 A3004 RMK A01 T03260188  RH  044%=      5-min Rain = 0
KLE1 131906Z 10011G16KT 32/19 A3004 RMK A01 T03240191  RH  045%=      5-min Rain = 0
KLE1 131907Z 10014KT 33/19 A3004 RMK A01 T03270193  RH  045%=      5-min Rain = 0
KLE1 131908Z 09014KT 33/19 A3004 RMK A01 T03300191  RH  044%=      5-min Rain = 0
KLE1 131909Z 10013KT 33/19 A3004 RMK A01 T03320189  RH  043%=      5-min Rain = 0
KLE1 131910Z 10014KT 33/19 A3004 RMK A01 T03310187  RH  043%=      5-min Rain = 0
KLE1 131911Z 10014KT 33/19 A3004 RMK A01 T03300188  RH  043%=      5-min Rain = 0
KLE1 131912Z 09011KT 33/19 A3004 RMK A01 T03290188  RH  043%=      5-min Rain = 0
KLE1 131913Z 08009KT 33/19 A3004 RMK A01 T03280192  RH  045%=      5-min Rain = 0
KLE1 131914Z 11014KT 33/19 A3004 RMK A01 T03310192  RH  044%=      5-min Rain = 0
KLE1 131915Z 10011KT 33/19 A3004 RMK A01 T03310189  RH  043%=      5-min Rain = 0
KLE1 131916Z 11014KT 33/19 A3004 RMK A01 T03280191  RH  044%=      5-min Rain = 0
KLE1 131917Z 11011KT 33/19 A3004 RMK A01 T03280190  RH  044%=      5-min Rain = 0
KLE1 131918Z 11013KT 33/19 A3004 RMK A01 T03260189  RH  044%=      5-min Rain = 0
KLE1 131919Z 12013KT 33/19 A3004 RMK A01 T03270189  RH  044%=      5-min Rain = 0
KLE1 131920Z 11014KT 33/19 A3004 RMK A01 T03270191  RH  044%=      5-min Rain = 0
KLE1 131921Z 12011KT 33/19 A3004 RMK A01 T03270190  RH  044%=      5-min Rain = 0
KLE1 131922Z 12011KT 33/19 A3004 RMK A01 T03270192  RH  045%=      5-min Rain = 0
KLE1 131923Z 12012KT 33/19 A3004 RMK A01 T03290191  RH  044%=      5-min Rain = 0
KLE1 131924Z 12012KT 33/19 A3004 RMK A01 T03280191  RH  045%=      5-min Rain = 0
KLE1 131925Z 11011KT 33/19 A3004 RMK A01 T03280192  RH  045%=      5-min Rain = 0
KLE1 131926Z 11013KT 33/20 A3004 RMK A01 T03320196  RH  045%=      5-min Rain = 0
KLE1 131927Z 11012KT 33/19 A3004 RMK A01 T03320190  RH  043%=      5-min Rain = 0
KLE1 131928Z 12011KT 33/19 A3004 RMK A01 T03280191  RH  044%=      5-min Rain = 0
KLE1 131929Z 11011KT 33/19 A3004 RMK A01 T03270191  RH  045%=      5-min Rain = 0
KLE1 131930Z 09012KT 33/19 A3004 RMK A01 T03270192  RH  045%=      5-min Rain = 0
KLE1 131931Z 10008KT 33/19 A3004 RMK A01 T03290192  RH  044%=      5-min Rain = 0
KLE1 131932Z 09007KT 33/19 A3004 RMK A01 T03300193  RH  045%=      5-min Rain = 0
KLE1 131933Z 11006KT 33/19 A3004 RMK A01 T03310193  RH  044%=      5-min Rain = 0
KLE1 131934Z 13007KT 33/19 A3004 RMK A01 T03320192  RH  044%=      5-min Rain = 0
KLE1 131935Z 11008KT 33/19 A3004 RMK A01 T03330190  RH  043%=      5-min Rain = 0
KLE1 131936Z 10013KT 34/19 A3004 RMK A01 T03350193  RH  043%=      5-min Rain = 0
KLE1 131937Z 10011KT 34/19 A3004 RMK A01 T03350191  RH  043%=      5-min Rain = 0
KLE1 131938Z 12011KT 33/19 A3004 RMK A01 T03340191  RH  043%=      5-min Rain = 0
KLE1 131939Z 11010G15KT 33/19 A3004 RMK A01 T03310189  RH  043%=      5-min Rain = 0
KLE1 131940Z 10014KT 33/19 A3004 RMK A01 T03320194  RH  044%=      5-min Rain = 0
KLE1 131941Z 11013KT 33/19 A3004 RMK A01 T03330194  RH  044%=      5-min Rain = 0
KLE1 131942Z 10011KT 33/20 A3004 RMK A01 T03320195  RH  044%=      5-min Rain = 0
KLE1 131943Z 10012KT 33/20 A3004 RMK A01 T03310195  RH  045%=      5-min Rain = 0
KLE1 131944Z 09010KT 33/19 A3003 RMK A01 T03310194  RH  045%=      5-min Rain = 0
KLE1 131945Z 10011KT 33/20 A3003 RMK A01 T03310196  RH  045%=      5-min Rain = 0
KLE1 131946Z 11015KT 33/20 A3003 RMK A01 T03330198  RH  045%=      5-min Rain = 0
KLE1 131947Z 11014KT 33/20 A3003 RMK A01 T03340197  RH  045%=      5-min Rain = 0
KLE1 131948Z 10015KT 33/20 A3003 RMK A01 T03320197  RH  045%=      5-min Rain = 0
KLE1 131949Z 11012KT 33/20 A3003 RMK A01 T03320197  RH  045%=      5-min Rain = 0
KLE1 131950Z 12013KT 33/20 A3003 RMK A01 T03330197  RH  045%=      5-min Rain = 0
KLE1 131951Z 12013KT 33/20 A3003 RMK A01 T03340196  RH  044%=      5-min Rain = 0
KLE1 131952Z 12011KT 33/20 A3003 RMK A01 T03340196  RH  044%=      5-min Rain = 0
KLE1 131953Z 12010G17KT 33/20 A3003 RMK A01 T03340196  RH  044%=      5-min Rain = 0
KLE1 131954Z 10014KT 34/20 A3003 RMK A01 T03370198  RH  044%=      5-min Rain = 0
KLE1 131955Z 11014KT 34/20 A3003 RMK A01 T03380196  RH  043%=      5-min Rain = 0
KLE1 131956Z 11010KT 34/19 A3003 RMK A01 T03350193  RH  043%=      5-min Rain = 0
KLE1 131957Z 11010KT 33/19 A3003 RMK A01 T03320194  RH  044%=      5-min Rain = 0
KLE1 131958Z 11010KT 33/19 A3003 RMK A01 T03310193  RH  044%=      5-min Rain = 0
KLE1 131959Z 11013KT 33/19 A3003 RMK A01 T03310194  RH  045%=      5-min Rain = 0
KLE1 132000Z 10013KT 33/19 A3003 RMK A01 T03300193  RH  044%=      5-min Rain = 0
KLE1 132001Z 12011KT 33/19 A3003 RMK A01 T03330193  RH  044%=      5-min Rain = 0
KLE1 132002Z 12010KT 34/19 A3003 RMK A01 T03350193  RH  043%=      5-min Rain = 0
KLE1 132003Z 11012KT 34/19 A3003 RMK A01 T03370191  RH  042%=      5-min Rain = 0
KLE1 132004Z 09011KT 33/19 A3003 RMK A01 T03340194  RH  044%=      5-min Rain = 0
KLE1 132005Z 07011KT 34/20 A3003 RMK A01 T03350196  RH  044%=      5-min Rain = 0
KLE1 132006Z 10011KT 34/20 A3003 RMK A01 T03400196  RH  043%=      5-min Rain = 0
KLE1 132007Z 11009KT 34/20 A3003 RMK A01 T03420197  RH  043%=      5-min Rain = 0
KLE1 132008Z 11015KT 34/20 A3002 RMK A01 T03410199  RH  043%=      5-min Rain = 0
KLE1 132009Z 10014KT 34/20 A3002 RMK A01 T03410199  RH  043%=      5-min Rain = 0
KLE1 132010Z 11016KT 34/20 A3002 RMK A01 T03410196  RH  042%=      5-min Rain = 0
KLE1 132011Z 11014KT 34/19 A3002 RMK A01 T03390191  RH  042%=      5-min Rain = 0
KLE1 132012Z 10013KT 34/19 A3002 RMK A01 T03370192  RH  043%=      5-min Rain = 0
KLE1 132013Z 11012KT 34/19 A3002 RMK A01 T03370193  RH  043%=      5-min Rain = 0
KLE1 132014Z 12010KT 34/19 A3002 RMK A01 T03370194  RH  043%=      5-min Rain = 0
KLE1 132015Z 10013KT 34/19 A3002 RMK A01 T03360194  RH  043%=      5-min Rain = 0
KLE1 132016Z 09014KT 34/19 A3002 RMK A01 T03350189  RH  042%=      5-min Rain = 0
KLE1 132017Z 10011KT 33/19 A3002 RMK A01 T03330188  RH  042%=      5-min Rain = 0
KLE1 132018Z 12012KT 33/19 A3002 RMK A01 T03330189  RH  042%=      5-min Rain = 0
KLE1 132019Z 10011KT 33/19 A3002 RMK A01 T03330188  RH  043%=      5-min Rain = 0
KLE1 132020Z 09012KT 34/19 A3002 RMK A01 T03350188  RH  042%=      5-min Rain = 0
KLE1 132021Z 10012KT 34/19 A3002 RMK A01 T03360187  RH  041%=      5-min Rain = 0
KLE1 132022Z 10013KT 34/19 A3002 RMK A01 T03380193  RH  042%=      5-min Rain = 0
KLE1 132023Z 10012KT 34/19 A3002 RMK A01 T03390192  RH  042%=      5-min Rain = 0
KLE1 132024Z 11009KT 34/19 A3002 RMK A01 T03380192  RH  042%=      5-min Rain = 0
KLE1 132025Z 13010KT 34/19 A3002 RMK A01 T03350191  RH  043%=      5-min Rain = 0
KLE1 132026Z 10012KT 33/20 A3002 RMK A01 T03320195  RH  044%=      5-min Rain = 0
KLE1 132027Z 11013KT 34/20 A3002 RMK A01 T03350196  RH  044%=      5-min Rain = 0
KLE1 132028Z 11012KT 34/20 A3002 RMK A01 T03380195  RH  043%=      5-min Rain = 0
KLE1 132029Z 11012KT 34/20 A3002 RMK A01 T03410199  RH  043%=      5-min Rain = 0
KLE1 132030Z 11012KT 34/19 A3002 RMK A01 T03430193  RH  041%=      5-min Rain = 0
KLE1 132031Z 11014KT 34/19 A3002 RMK A01 T03410194  RH  042%=      5-min Rain = 0
KLE1 132032Z 11012KT 34/19 A3002 RMK A01 T03400192  RH  042%=      5-min Rain = 0
KLE1 132033Z 11010KT 34/19 A3002 RMK A01 T03380194  RH  043%=      5-min Rain = 0
KLE1 132034Z 10010KT 34/19 A3002 RMK A01 T03390189  RH  041%=      5-min Rain = 0
KLE1 132035Z 11009KT 34/19 A3002 RMK A01 T03370193  RH  043%=      5-min Rain = 0
KLE1 132036Z 12011KT 34/20 A3002 RMK A01 T03380198  RH  044%=      5-min Rain = 0
KLE1 132037Z 12014KT 34/20 A3002 RMK A01 T03400202  RH  045%=      5-min Rain = 0
KLE1 132038Z 13013KT 34/20 A3002 RMK A01 T03400201  RH  044%=      5-min Rain = 0
KLE1 132039Z 13011KT 34/20 A3002 RMK A01 T03370201  RH  045%=      5-min Rain = 0
KLE1 132040Z 12013KT 34/20 A3002 RMK A01 T03360204  RH  046%=      5-min Rain = 0
KLE1 132041Z 12011KT 34/20 A3002 RMK A01 T03360204  RH  046%=      5-min Rain = 0
KLE1 132042Z 10016KT 34/20 A3001 RMK A01 T03350197  RH  044%=      5-min Rain = 0
KLE1 132043Z 09013KT 34/19 A3002 RMK A01 T03350189  RH  042%=      5-min Rain = 0
KLE1 132044Z 09011KT 34/19 A3002 RMK A01 T03350189  RH  042%=      5-min Rain = 0
KLE1 132045Z 10009KT 34/19 A3002 RMK A01 T03370190  RH  042%=      5-min Rain = 0
KLE1 132046Z 11011KT 34/20 A3002 RMK A01 T03430197  RH  042%=      5-min Rain = 0
KLE1 132047Z 11012KT 34/19 A3001 RMK A01 T03420194  RH  042%=      5-min Rain = 0
KLE1 132048Z 12012KT 34/20 A3001 RMK A01 T03400195  RH  043%=      5-min Rain = 0
KLE1 132049Z 11011KT 34/20 A3001 RMK A01 T03390195  RH  043%=      5-min Rain = 0
KLE1 132050Z 10013KT 34/20 A3001 RMK A01 T03400197  RH  043%=      5-min Rain = 0
KLE1 132051Z 11014KT 34/20 A3001 RMK A01 T03410201  RH  044%=      5-min Rain = 0
KLE1 132052Z 10013KT 34/20 A3001 RMK A01 T03420201  RH  043%=      5-min Rain = 0
KLE1 132053Z 10010KT 34/20 A3001 RMK A01 T03430199  RH  043%=      5-min Rain = 0
KLE1 132054Z 10013KT 34/20 A3001 RMK A01 T03420199  RH  043%=      5-min Rain = 0
KLE1 132055Z 11013KT 34/20 A3001 RMK A01 T03400199  RH  044%=      5-min Rain = 0
KLE1 132056Z 11012KT 34/20 A3001 RMK A01 T03390201  RH  044%=      5-min Rain = 0
KLE1 132057Z 10011KT 34/20 A3001 RMK A01 T03400202  RH  044%=      5-min Rain = 0
KLE1 132058Z 11012KT 34/20 A3001 RMK A01 T03370202  RH  045%=      5-min Rain = 0
KLE1 132059Z 12012KT 34/20 A3001 RMK A01 T03360204  RH  046%=      5-min Rain = 0
KLE1 132100Z 11011KT 34/20 A3001 RMK A01 T03350201  RH  045%=      5-min Rain = 0
KLE1 132101Z 13012KT 33/20 A3001 RMK A01 T03320202  RH  046%=      5-min Rain = 0
KLE1 132102Z 12014KT 33/20 A3001 RMK A01 T03330202  RH  046%=      5-min Rain = 0
KLE1 132103Z 10013G18KT 34/20 A3001 RMK A01 T03370202  RH  045%=      5-min Rain = 0
KLE1 132104Z 11016KT 34/20 A3001 RMK A01 T03400195  RH  043%=      5-min Rain = 0
KLE1 132105Z 10014KT 34/20 A3001 RMK A01 T03400196  RH  043%=      5-min Rain = 0
KLE1 132106Z 10012KT 34/20 A3001 RMK A01 T03400195  RH  043%=      5-min Rain = 0
KLE1 132107Z 10011KT 34/20 A3001 RMK A01 T03390195  RH  043%=      5-min Rain = 0
KLE1 132108Z 11009KT 34/19 A3001 RMK A01 T03390194  RH  043%=      5-min Rain = 0
KLE1 132109Z 11008G13KT 34/20 A3001 RMK A01 T03370195  RH  043%=      5-min Rain = 0
KLE1 132110Z 13013KT 34/20 A3001 RMK A01 T03380200  RH  044%=      5-min Rain = 0
KLE1 132111Z 11011KT 34/20 A3001 RMK A01 T03370202  RH  045%=      5-min Rain = 0
KLE1 132112Z 10014KT 34/20 A3001 RMK A01 T03360202  RH  045%=      5-min Rain = 0
KLE1 132113Z 10013KT 34/20 A3001 RMK A01 T03360200  RH  045%=      5-min Rain = 0
KLE1 132114Z 09013KT 34/20 A3001 RMK A01 T03370200  RH  045%=      5-min Rain = 0
KLE1 132115Z 10013KT 34/20 A3001 RMK A01 T03360199  RH  044%=      5-min Rain = 0
KLE1 132116Z 11010KT 33/20 A3001 RMK A01 T03330200  RH  045%=      5-min Rain = 0
KLE1 132117Z 12012KT 33/20 A3001 RMK A01 T03330200  RH  046%=      5-min Rain = 0
KLE1 132118Z 13012KT 33/20 A3001 RMK A01 T03340199  RH  045%=      5-min Rain = 0
KLE1 132119Z 13007KT 33/20 A3001 RMK A01 T03340199  RH  045%=      5-min Rain = 0
KLE1 132120Z 12008KT 33/20 A3001 RMK A01 T03340200  RH  045%=      5-min Rain = 0
KLE1 132121Z 11009KT 33/20 A3001 RMK A01 T03330201  RH  046%=      5-min Rain = 0
KLE1 132122Z 09011KT 34/20 A3001 RMK A01 T03360203  RH  046%=      5-min Rain = 0
KLE1 132123Z 10012KT 34/20 A3001 RMK A01 T03390197  RH  043%=      5-min Rain = 0
KLE1 132124Z 10011KT 34/20 A3001 RMK A01 T03390196  RH  043%=      5-min Rain = 0
KLE1 132125Z 11008KT 34/20 A3001 RMK A01 T03400195  RH  042%=      5-min Rain = 0
KLE1 132126Z 11009KT 34/19 A3001 RMK A01 T03390194  RH  042%=      5-min Rain = 0
KLE1 132127Z 11011KT 34/20 A3001 RMK A01 T03370196  RH  043%=      5-min Rain = 0
KLE1 132128Z 11014KT 34/20 A3001 RMK A01 T03360201  RH  045%=      5-min Rain = 0
KLE1 132129Z 10016KT 34/20 A3001 RMK A01 T03370203  RH  045%=      5-min Rain = 0
KLE1 132130Z 09015KT 34/20 A3001 RMK A01 T03390201  RH  045%=      5-min Rain = 0
KLE1 132131Z 09012KT 34/20 A3001 RMK A01 T03370199  RH  044%=      5-min Rain = 0
KLE1 132132Z 11013KT 33/20 A3001 RMK A01 T03320200  RH  046%=      5-min Rain = 0
KLE1 132133Z 11012KT 33/20 A3001 RMK A01 T03330202  RH  046%=      5-min Rain = 0
KLE1 132134Z 11010KT 33/20 A3001 RMK A01 T03320199  RH  046%=      5-min Rain = 0
KLE1 132135Z 11010KT 33/20 A3001 RMK A01 T03330203  RH  047%=      5-min Rain = 0
KLE1 132136Z 11011KT 34/20 A3001 RMK A01 T03370202  RH  045%=      5-min Rain = 0
KLE1 132137Z 11014KT 34/20 A30 RMK A01 T03390202  RH  045%=      5-min Rain = 0
KLE1 132138Z 11011KT 34/20 A30 RMK A01 T03400199  RH  044%=      5-min Rain = 0
KLE1 132139Z 08010KT 34/20 A3001 RMK A01 T03410201  RH  044%=      5-min Rain = 0
KLE1 132140Z 08010KT 34/20 A30 RMK A01 T03420199  RH  043%=      5-min Rain = 0
KLE1 132141Z 11010KT 34/20 A30 RMK A01 T03410198  RH  043%=      5-min Rain = 0
KLE1 132142Z 12013KT 34/20 A30 RMK A01 T03400202  RH  045%=      5-min Rain = 0
KLE1 132143Z 12011KT 34/20 A30 RMK A01 T03370200  RH  045%=      5-min Rain = 0
KLE1 132144Z 12010KT 34/20 A30 RMK A01 T03350201  RH  046%=      5-min Rain = 0
KLE1 132145Z 11009KT 34/20 A30 RMK A01 T03350203  RH  046%=      5-min Rain = 0
KLE1 132146Z 11007KT 34/20 A30 RMK A01 T03390204  RH  045%=      5-min Rain = 0
KLE1 132147Z 09010KT 34/20 A30 RMK A01 T03400203  RH  045%=      5-min Rain = 0
KLE1 132148Z 09014KT 34/20 A30 RMK A01 T03430199  RH  043%=      5-min Rain = 0
KLE1 132149Z 10013KT 34/20 A30 RMK A01 T03420199  RH  043%=      5-min Rain = 0
KLE1 132150Z 11014KT 34/20 A30 RMK A01 T03410200  RH  044%=      5-min Rain = 0
KLE1 132151Z 11010KT 34/20 A30 RMK A01 T03400199  RH  044%=      5-min Rain = 0
KLE1 132152Z 11010KT 34/20 A30 RMK A01 T03390200  RH  044%=      5-min Rain = 0
KLE1 132153Z 09015KT 34/20 A30 RMK A01 T03400199  RH  044%=      5-min Rain = 0
KLE1 132154Z 09010KT 34/20 A30 RMK A01 T03390196  RH  043%=      5-min Rain = 0
KLE1 132155Z 09006KT 33/20 A30 RMK A01 T03340195  RH  044%=      5-min Rain = 0
KLE1 132156Z 11007KT 33/20 A30 RMK A01 T03340199  RH  045%=      5-min Rain = 0
KLE1 132157Z 12008KT 34/20 A30 RMK A01 T03380201  RH  045%=      5-min Rain = 0
KLE1 132158Z 12010KT 34/20 A30 RMK A01 T03360201  RH  045%=      5-min Rain = 0
KLE1 132159Z 11011KT 34/21 A30 RMK A01 T03360206  RH  046%=      5-min Rain = 0
KLE1 132200Z 11012KT 34/20 A30 RMK A01 T03400203  RH  045%=      5-min Rain = 0
KLE1 132201Z 12013KT 34/20 A30 RMK A01 T03410203  RH  044%=      5-min Rain = 0
KLE1 132202Z 11012KT 34/20 A30 RMK A01 T03390200  RH  044%=      5-min Rain = 0
KLE1 132203Z 11011KT 34/20 A30 RMK A01 T03350199  RH  045%=      5-min Rain = 0
KLE1 132204Z 10013KT 33/20 A2999 RMK A01 T03320200  RH  046%=      5-min Rain = 0
KLE1 132205Z 10014KT 33/20 A2999 RMK A01 T03320200  RH  046%=      5-min Rain = 0
KLE1 132206Z 09008KT 33/20 A2999 RMK A01 T03320199  RH  046%=      5-min Rain = 0
KLE1 132207Z 11011KT 34/20 A2999 RMK A01 T03350200  RH  045%=      5-min Rain = 0
KLE1 132208Z 11010KT 34/20 A2999 RMK A01 T03360200  RH  045%=      5-min Rain = 0
KLE1 132209Z 12009KT 34/20 A2999 RMK A01 T03370198  RH  044%=      5-min Rain = 0
KLE1 132210Z 12014KT 34/20 A2999 RMK A01 T03380200  RH  044%=      5-min Rain = 0
KLE1 132211Z 11018G24KT 34/20 A2999 RMK A01 T03370197  RH  044%=      5-min Rain = 0
KLE1 132212Z 11015KT 34/20 A2999 RMK A01 T03360198  RH  044%=      5-min Rain = 0
KLE1 132213Z 10011KT 34/20 A2999 RMK A01 T03350196  RH  044%=      5-min Rain = 0
KLE1 132214Z 10009KT 33/20 A2999 RMK A01 T03330196  RH  045%=      5-min Rain = 0
KLE1 132215Z 09011KT 33/20 A2999 RMK A01 T03330198  RH  045%=      5-min Rain = 0
KLE1 132216Z 09012KT 33/20 A2999 RMK A01 T03330200  RH  046%=      5-min Rain = 0
KLE1 132217Z 10012KT 34/20 A2999 RMK A01 T03370202  RH  045%=      5-min Rain = 0
KLE1 132218Z 12013KT 34/20 A2999 RMK A01 T03390203  RH  045%=      5-min Rain = 0
KLE1 132219Z 13012KT 34/20 A2999 RMK A01 T03390203  RH  045%=      5-min Rain = 0
KLE1 132220Z 12010KT 34/20 A2999 RMK A01 T03370199  RH  044%=      5-min Rain = 0
KLE1 132221Z 12009KT 34/20 A2999 RMK A01 T03350202  RH  046%=      5-min Rain = 0
KLE1 132222Z 11011KT 34/20 A2999 RMK A01 T03370204  RH  046%=      5-min Rain = 0
KLE1 132223Z 11012KT 34/20 A2999 RMK A01 T03390201  RH  044%=      5-min Rain = 0
KLE1 132224Z 10014KT 34/20 A2999 RMK A01 T03400198  RH  043%=      5-min Rain = 0
KLE1 132225Z 09009KT 34/20 A2999 RMK A01 T03370195  RH  043%=      5-min Rain = 0
KLE1 132226Z 09008KT 33/20 A2999 RMK A01 T03340195  RH  044%=      5-min Rain = 0
KLE1 132227Z 12010KT 33/20 A2999 RMK A01 T03330197  RH  045%=      5-min Rain = 0
KLE1 132228Z 12013KT 34/20 A2999 RMK A01 T03350199  RH  045%=      5-min Rain = 0
KLE1 132229Z 10013KT 34/20 A2999 RMK A01 T03370195  RH  043%=      5-min Rain = 0
KLE1 132230Z 09010KT 34/20 A2999 RMK A01 T03370195  RH  043%=      5-min Rain = 0
KLE1 132231Z 11011KT 34/20 A2999 RMK A01 T03380196  RH  043%=      5-min Rain = 0
KLE1 132232Z 11012KT 34/20 A2999 RMK A01 T03380198  RH  044%=      5-min Rain = 0
KLE1 132233Z 12014KT 34/20 A2999 RMK A01 T03380200  RH  045%=      5-min Rain = 0
KLE1 132234Z 12013KT 34/20 A2999 RMK A01 T03360199  RH  044%=      5-min Rain = 0
KLE1 132235Z 11011KT 34/20 A2999 RMK A01 T03360198  RH  044%=      5-min Rain = 0
KLE1 132236Z 10010KT 33/20 A2999 RMK A01 T03330196  RH  045%=      5-min Rain = 0
KLE1 132237Z 12010KT 33/20 A2999 RMK A01 T03310199  RH  046%=      5-min Rain = 0
KLE1 132238Z 11011KT 33/20 A2999 RMK A01 T03310202  RH  047%=      5-min Rain = 0
KLE1 132239Z 08010KT 34/20 A2999 RMK A01 T03360197  RH  044%=      5-min Rain = 0
KLE1 132240Z 09011KT 34/20 A2999 RMK A01 T03360196  RH  044%=      5-min Rain = 0
KLE1 132241Z 10014KT 34/20 A2999 RMK A01 T03360196  RH  044%=      5-min Rain = 0
KLE1 132242Z 09014KT 34/20 A2999 RMK A01 T03360196  RH  044%=      5-min Rain = 0
KLE1 132243Z 09013KT 34/20 A2999 RMK A01 T03350195  RH  044%=      5-min Rain = 0
KLE1 132244Z 09011KT 33/19 A2999 RMK A01 T03330192  RH  044%=      5-min Rain = 0
KLE1 132245Z 10011KT 33/19 A2999 RMK A01 T03300191  RH  044%=      5-min Rain = 0
KLE1 132246Z 12012KT 33/19 A2999 RMK A01 T03280193  RH  045%=      5-min Rain = 0
KLE1 132247Z 12011KT 33/19 A2999 RMK A01 T03300191  RH  044%=      5-min Rain = 0
KLE1 132248Z 12008KT 33/19 A2999 RMK A01 T03310192  RH  044%=      5-min Rain = 0
KLE1 132249Z 10008KT 33/20 A2999 RMK A01 T03310195  RH  045%=      5-min Rain = 0
KLE1 132250Z 09010KT 33/20 A2999 RMK A01 T03340197  RH  044%=      5-min Rain = 0
KLE1 132251Z 09012KT 34/20 A2999 RMK A01 T03360197  RH  044%=      5-min Rain = 0
KLE1 132252Z 08013KT 34/20 A2999 RMK A01 T03350198  RH  045%=      5-min Rain = 0
KLE1 132253Z 08013KT 33/20 A2999 RMK A01 T03340198  RH  045%=      5-min Rain = 0
KLE1 132254Z 11011KT 33/20 A2999 RMK A01 T03330197  RH  045%=      5-min Rain = 0
KLE1 132255Z 12010KT 33/20 A2999 RMK A01 T03330200  RH  046%=      5-min Rain = 0
KLE1 132256Z 10011KT 34/20 A2999 RMK A01 T03350200  RH  045%=      5-min Rain = 0
KLE1 132257Z 09013KT 34/20 A2999 RMK A01 T03360198  RH  044%=      5-min Rain = 0
KLE1 132258Z 08014KT 34/20 A2999 RMK A01 T03370197  RH  044%=      5-min Rain = 0
KLE1 132259Z 08014KT 34/19 A2999 RMK A01 T03350194  RH  044%=      5-min Rain = 0
KLE1 132300Z 09011KT 33/20 A2999 RMK A01 T03330195  RH  044%=      5-min Rain = 0
KLE1 132301Z 09012KT 33/20 A2999 RMK A01 T03320195  RH  044%=      5-min Rain = 0
KLE1 132302Z 09012KT 33/20 A2999 RMK A01 T03320195  RH  044%=      5-min Rain = 0
KLE1 132303Z 10012KT 33/19 A2999 RMK A01 T03320194  RH  044%=      5-min Rain = 0
KLE1 132304Z 09010KT 34/20 A2999 RMK A01 T03350195  RH  044%=      5-min Rain = 0
KLE1 132305Z 09011KT 34/20 A2999 RMK A01 T03360196  RH  044%=      5-min Rain = 0
KLE1 132306Z 08010KT 34/20 A2999 RMK A01 T03360195  RH  044%=      5-min Rain = 0
KLE1 132307Z 09010KT 33/19 A2999 RMK A01 T03330194  RH  044%=      5-min Rain = 0
KLE1 132308Z 10011KT 33/20 A2999 RMK A01 T03320196  RH  045%=      5-min Rain = 0
KLE1 132309Z 08012KT 33/20 A2999 RMK A01 T03330195  RH  044%=      5-min Rain = 0
KLE1 132310Z 08011KT 33/20 A2999 RMK A01 T03340195  RH  044%=      5-min Rain = 0
KLE1 132311Z 10011KT 33/20 A2999 RMK A01 T03340196  RH  044%=      5-min Rain = 0
KLE1 132312Z 09013KT 34/20 A2999 RMK A01 T03350195  RH  044%=      5-min Rain = 0
KLE1 132313Z 08011KT 33/20 A2999 RMK A01 T03340195  RH  044%=      5-min Rain = 0
KLE1 132314Z 07011KT 33/19 A2999 RMK A01 T03340193  RH  044%=      5-min Rain = 0
KLE1 132315Z 07012KT 33/19 A2999 RMK A01 T03330193  RH  044%=      5-min Rain = 0
KLE1 132316Z 06011KT 33/19 A2999 RMK A01 T03320192  RH  043%=      5-min Rain = 0
KLE1 132317Z 08011KT 33/19 A2999 RMK A01 T03320191  RH  043%=      5-min Rain = 0
KLE1 132318Z 08010KT 33/19 A2999 RMK A01 T03320191  RH  043%=      5-min Rain = 0
KLE1 132319Z 09009KT 33/19 A2999 RMK A01 T03320190  RH  043%=      5-min Rain = 0
KLE1 132320Z 10011KT 33/19 A2999 RMK A01 T03320193  RH  044%=      5-min Rain = 0
KLE1 132321Z 09009KT 33/19 A2999 RMK A01 T03310193  RH  044%=      5-min Rain = 0
KLE1 132322Z 08009KT 33/19 A2999 RMK A01 T03320193  RH  044%=      5-min Rain = 0
KLE1 132323Z 09008KT 33/19 A2999 RMK A01 T03330191  RH  043%=      5-min Rain = 0
KLE1 132324Z 12011KT 33/19 A2999 RMK A01 T03330192  RH  043%=      5-min Rain = 0
KLE1 132325Z 10008KT 33/19 A2999 RMK A01 T03320191  RH  043%=      5-min Rain = 0
KLE1 132326Z 10010KT 33/19 A2999 RMK A01 T03310191  RH  044%=      5-min Rain = 0
KLE1 132327Z 08012KT 33/19 A2999 RMK A01 T03320192  RH  044%=      5-min Rain = 0
KLE1 132328Z 07013KT 33/19 A2999 RMK A01 T03320190  RH  043%=      5-min Rain = 0
KLE1 132329Z 07010KT 33/19 A2999 RMK A01 T03320191  RH  043%=      5-min Rain = 0
KLE1 132330Z 07014KT 33/19 A2999 RMK A01 T03320191  RH  044%=      5-min Rain = 0
KLE1 132331Z 07012KT 33/19 A2999 RMK A01 T03310191  RH  044%=      5-min Rain = 0
KLE1 132332Z 08010KT 33/19 A2999 RMK A01 T03300192  RH  044%=      5-min Rain = 0
KLE1 132333Z 08011KT 33/19 A2999 RMK A01 T03300192  RH  044%=      5-min Rain = 0
KLE1 132334Z 08011KT 33/19 A2999 RMK A01 T03300192  RH  044%=      5-min Rain = 0
KLE1 132335Z 08011KT 33/19 A2999 RMK A01 T03300192  RH  044%=      5-min Rain = 0
KLE1 132336Z 08008KT 33/19 A2999 RMK A01 T03290192  RH  044%=      5-min Rain = 0
KLE1 132337Z 08009KT 33/19 A2999 RMK A01 T03290193  RH  045%=      5-min Rain = 0
KLE1 132338Z 09011KT 33/19 A2999 RMK A01 T03280193  RH  045%=      5-min Rain = 0
KLE1 132339Z 08008KT 33/19 A2999 RMK A01 T03290191  RH  044%=      5-min Rain = 0
KLE1 132340Z 08006KT 33/19 A2999 RMK A01 T03270192  RH  045%=      5-min Rain = 0
KLE1 132341Z 08009KT 33/19 A2999 RMK A01 T03280193  RH  045%=      5-min Rain = 0
KLE1 132342Z 08010KT 33/19 A2999 RMK A01 T03290193  RH  045%=      5-min Rain = 0
KLE1 132343Z 07007KT 33/19 A2999 RMK A01 T03280192  RH  045%=      5-min Rain = 0
KLE1 132344Z 07009KT 33/19 A2999 RMK A01 T03280194  RH  045%=      5-min Rain = 0
KLE1 132345Z 07010KT 33/19 A2999 RMK A01 T03280194  RH  045%=      5-min Rain = 0
KLE1 132346Z 08011KT 33/19 A2999 RMK A01 T03290194  RH  045%=      5-min Rain = 0
KLE1 132347Z 09013KT 33/19 A2999 RMK A01 T03310191  RH  044%=      5-min Rain = 0
KLE1 132348Z 08010KT 33/19 A2999 RMK A01 T03300190  RH  044%=      5-min Rain = 0
KLE1 132349Z 09009KT 33/19 A2999 RMK A01 T03290191  RH  044%=      5-min Rain = 0
KLE1 132350Z 09010KT 33/19 A2999 RMK A01 T03290190  RH  044%=      5-min Rain = 0
KLE1 132351Z 08009KT 33/19 A2999 RMK A01 T03290190  RH  044%=      5-min Rain = 0
KLE1 132352Z 09010KT 33/19 A2999 RMK A01 T03280190  RH  044%=      5-min Rain = 0
KLE1 132353Z 10010KT 33/19 A2999 RMK A01 T03280191  RH  044%=      5-min Rain = 0
KLE1 132354Z 09008KT 33/19 A30 RMK A01 T03280189  RH  044%=      5-min Rain = 0
KLE1 132355Z 10007KT 33/19 A30 RMK A01 T03280190  RH  044%=      5-min Rain = 0
KLE1 132356Z 09008KT 33/19 A2999 RMK A01 T03280189  RH  044%=      5-min Rain = 0
KLE1 132357Z 08009KT 33/19 A2999 RMK A01 T03270191  RH  045%=      5-min Rain = 0
KLE1 132358Z 07011KT 33/19 A30 RMK A01 T03270191  RH  045%=      5-min Rain = 0
KLE1 132359Z 08009KT 33/19 A2999 RMK A01 T03280192  RH  045%=      5-min Rain = 0
KLE1 140000Z 09012KT 33/19 A2999 RMK A01 T03270193  RH  045%=      5-min Rain = 0
KLE1 140001Z 10010KT 33/19 A2999 RMK A01 T03260191  RH  045%=      5-min Rain = 0
KLE1 140002Z 10009KT 32/19 A2999 RMK A01 T03240191  RH  045%=      5-min Rain = 0
KLE1 140003Z 10010KT 32/19 A30 RMK A01 T03240192  RH  046%=      5-min Rain = 0
KLE1 140004Z 08011KT 32/19 A30 RMK A01 T03240192  RH  046%=      5-min Rain = 0
KLE1 140005Z 09010KT 33/19 A30 RMK A01 T03250190  RH  045%=      5-min Rain = 0
KLE1 140006Z 09010KT 32/19 A30 RMK A01 T03240189  RH  045%=      5-min Rain = 0
KLE1 140007Z 08009KT 32/19 A30 RMK A01 T03240188  RH  045%=      5-min Rain = 0
KLE1 140008Z 08010KT 32/19 A30 RMK A01 T03230189  RH  045%=      5-min Rain = 0
KLE1 140009Z 07010KT 32/19 A30 RMK A01 T03230189  RH  045%=      5-min Rain = 0
KLE1 140010Z 08010KT 32/19 A30 RMK A01 T03230190  RH  045%=      5-min Rain = 0
KLE1 140011Z 08009KT 32/19 A30 RMK A01 T03230189  RH  045%=      5-min Rain = 0
KLE1 140012Z 08010KT 32/19 A30 RMK A01 T03220189  RH  045%=      5-min Rain = 0
KLE1 140013Z 08010KT 32/19 A30 RMK A01 T03230189  RH  045%=      5-min Rain = 0
KLE1 140014Z 08009KT 32/19 A30 RMK A01 T03230190  RH  045%=      5-min Rain = 0
KLE1 140015Z 08010KT 32/19 A30 RMK A01 T03230190  RH  045%=      5-min Rain = 0
KLE1 140016Z 08010KT 32/19 A30 RMK A01 T03230190  RH  045%=      5-min Rain = 0
KLE1 140017Z 08009KT 32/19 A30 RMK A01 T03220189  RH  045%=      5-min Rain = 0
KLE1 140018Z 09010KT 32/19 A30 RMK A01 T03220189  RH  046%=      5-min Rain = 0
KLE1 140019Z 09011KT 32/19 A30 RMK A01 T03210189  RH  046%=      5-min Rain = 0
KLE1 140020Z 08010KT 32/19 A30 RMK A01 T03210189  RH  045%=      5-min Rain = 0
KLE1 140021Z 07009KT 32/19 A30 RMK A01 T03210189  RH  046%=      5-min Rain = 0
KLE1 140022Z 07007KT 32/19 A30 RMK A01 T03210190  RH  046%=      5-min Rain = 0
KLE1 140023Z 07008KT 32/19 A30 RMK A01 T03220190  RH  046%=      5-min Rain = 0
KLE1 140024Z 07008KT 32/19 A30 RMK A01 T03220188  RH  045%=      5-min Rain = 0
KLE1 140025Z 07009KT 32/19 A30 RMK A01 T03210188  RH  045%=      5-min Rain = 0
KLE1 140026Z 08009KT 32/19 A30 RMK A01 T03210190  RH  046%=      5-min Rain = 0
KLE1 140027Z 08009KT 32/19 A30 RMK A01 T03210191  RH  046%=      5-min Rain = 0
KLE1 140028Z 09010KT 32/19 A30 RMK A01 T03210191  RH  046%=      5-min Rain = 0
KLE1 140029Z 08010KT 32/19 A30 RMK A01 T03210188  RH  045%=      5-min Rain = 0
KLE1 140030Z 08010KT 32/19 A30 RMK A01 T03200189  RH  046%=      5-min Rain = 0
KLE1 140031Z 07010KT 32/19 A30 RMK A01 T03190188  RH  046%=      5-min Rain = 0
KLE1 140032Z 07010KT 32/19 A30 RMK A01 T03190188  RH  046%=      5-min Rain = 0
KLE1 140033Z 07010KT 32/19 A30 RMK A01 T03190188  RH  046%=      5-min Rain = 0
KLE1 140034Z 08010KT 32/19 A30 RMK A01 T03180188  RH  046%=      5-min Rain = 0
KLE1 140035Z 08010KT 32/19 A30 RMK A01 T03180188  RH  046%=      5-min Rain = 0
KLE1 140036Z 08011KT 32/19 A30 RMK A01 T03180188  RH  046%=      5-min Rain = 0
KLE1 140037Z 08010KT 32/19 A30 RMK A01 T03170188  RH  046%=      5-min Rain = 0
KLE1 140038Z 07010KT 32/19 A30 RMK A01 T03170188  RH  046%=      5-min Rain = 0
KLE1 140039Z 07009KT 32/19 A30 RMK A01 T03170186  RH  046%=      5-min Rain = 0
KLE1 140040Z 07008KT 32/19 A30 RMK A01 T03170188  RH  046%=      5-min Rain = 0
KLE1 140041Z 07008KT 32/19 A30 RMK A01 T03170188  RH  046%=      5-min Rain = 0
KLE1 140042Z 08008KT 32/19 A30 RMK A01 T03170189  RH  047%=      5-min Rain = 0
KLE1 140043Z 07009KT 32/19 A30 RMK A01 T03160188  RH  047%=      5-min Rain = 0
KLE1 140044Z 08008KT 32/19 A30 RMK A01 T03160189  RH  047%=      5-min Rain = 0
KLE1 140045Z 08007KT 32/19 A30 RMK A01 T03160191  RH  047%=      5-min Rain = 0
KLE1 140046Z 08008KT 32/19 A30 RMK A01 T03150191  RH  048%=      5-min Rain = 0
KLE1 140047Z 08008KT 32/19 A30 RMK A01 T03150191  RH  048%=      5-min Rain = 0
KLE1 140048Z 08008KT 32/19 A30 RMK A01 T03150191  RH  048%=      5-min Rain = 0
KLE1 140049Z 08009KT 32/19 A30 RMK A01 T03150190  RH  048%=      5-min Rain = 0
KLE1 140050Z 08008KT 31/19 A30 RMK A01 T03140190  RH  048%=      5-min Rain = 0
KLE1 140051Z 08008KT 31/19 A30 RMK A01 T03140191  RH  048%=      5-min Rain = 0
KLE1 140052Z 08008KT 31/19 A30 RMK A01 T03140192  RH  048%=      5-min Rain = 0
KLE1 140053Z 08010KT 31/19 A30 RMK A01 T03140193  RH  049%=      5-min Rain = 0
KLE1 140054Z 08009KT 31/19 A30 RMK A01 T03130191  RH  048%=      5-min Rain = 0
KLE1 140055Z 08009KT 31/19 A30 RMK A01 T03130192  RH  049%=      5-min Rain = 0
KLE1 140056Z 08010KT 31/19 A30 RMK A01 T03120190  RH  048%=      5-min Rain = 0
KLE1 140057Z 08010KT 31/19 A30 RMK A01 T03120190  RH  048%=      5-min Rain = 0
KLE1 140058Z 09009KT 31/19 A30 RMK A01 T03120190  RH  048%=      5-min Rain = 0
KLE1 140059Z 08009KT 31/19 A30 RMK A01 T03120191  RH  049%=      5-min Rain = 0
KLE1 140100Z 08009KT 31/19 A30 RMK A01 T03110192  RH  049%=      5-min Rain = 0
KLE1 140101Z 08009KT 31/19 A30 RMK A01 T03110191  RH  049%=      5-min Rain = 0
KLE1 140102Z 08008KT 31/19 A30 RMK A01 T03100191  RH  049%=      5-min Rain = 0
KLE1 140103Z 08009KT 31/19 A30 RMK A01 T03100192  RH  049%=      5-min Rain = 0
KLE1 140104Z 08009KT 31/19 A30 RMK A01 T03100192  RH  049%=      5-min Rain = 0
KLE1 140105Z 08009KT 31/19 A30 RMK A01 T03090193  RH  050%=      5-min Rain = 0
KLE1 140106Z 08009KT 31/19 A30 RMK A01 T03090193  RH  050%=      5-min Rain = 0
KLE1 140107Z 08009KT 31/19 A30 RMK A01 T03080193  RH  050%=      5-min Rain = 0
KLE1 140108Z 08009KT 31/19 A30 RMK A01 T03080193  RH  050%=      5-min Rain = 0
KLE1 140109Z 08008KT 31/19 A30 RMK A01 T03070193  RH  050%=      5-min Rain = 0
KLE1 140110Z 08008KT 31/19 A3001 RMK A01 T03070194  RH  051%=      5-min Rain = 0
KLE1 140111Z 08009KT 31/19 A3001 RMK A01 T03070193  RH  051%=      5-min Rain = 0
KLE1 140112Z 08009KT 31/19 A3001 RMK A01 T03060193  RH  051%=      5-min Rain = 0
KLE1 140113Z 08009KT 31/19 A3001 RMK A01 T03060194  RH  051%=      5-min Rain = 0
KLE1 140114Z 08009KT 31/19 A3001 RMK A01 T03050193  RH  051%=      5-min Rain = 0
KLE1 140115Z 08008KT 31/19 A3001 RMK A01 T03050192  RH  051%=      5-min Rain = 0
KLE1 140116Z 08010KT 31/19 A3001 RMK A01 T03050192  RH  051%=      5-min Rain = 0
KLE1 140117Z 08008KT 31/19 A3001 RMK A01 T03050192  RH  051%=      5-min Rain = 0
KLE1 140118Z 08008KT 31/19 A3001 RMK A01 T03050193  RH  051%=      5-min Rain = 0
KLE1 140119Z 08008KT 30/19 A3001 RMK A01 T03040193  RH  051%=      5-min Rain = 0
KLE1 140120Z 08008KT 30/19 A3001 RMK A01 T03040193  RH  052%=      5-min Rain = 0
KLE1 140121Z 08008KT 30/19 A3001 RMK A01 T03030192  RH  052%=      5-min Rain = 0
KLE1 140122Z 08007KT 30/19 A3001 RMK A01 T03030192  RH  052%=      5-min Rain = 0
KLE1 140123Z 08007KT 30/19 A3001 RMK A01 T03020193  RH  052%=      5-min Rain = 0
KLE1 140124Z 08007KT 30/19 A3001 RMK A01 T03020193  RH  052%=      5-min Rain = 0
KLE1 140125Z 08007KT 30/19 A3001 RMK A01 T03010193  RH  052%=      5-min Rain = 0
KLE1 140126Z 07008KT 30/19 A3001 RMK A01 T03000193  RH  052%=      5-min Rain = 0
KLE1 140127Z 08008KT 30/19 A3001 RMK A01 T03000193  RH  053%=      5-min Rain = 0
KLE1 140128Z 07007KT 30/19 A3001 RMK A01 T02990193  RH  053%=      5-min Rain = 0
KLE1 140129Z 07007KT 30/19 A3001 RMK A01 T02990194  RH  053%=      5-min Rain = 0
KLE1 140130Z 07007KT 30/19 A3001 RMK A01 T02980193  RH  053%=      5-min Rain = 0
KLE1 140131Z 07008KT 30/19 A3001 RMK A01 T02980193  RH  053%=      5-min Rain = 0
KLE1 140132Z 08007KT 30/19 A3001 RMK A01 T02980193  RH  053%=      5-min Rain = 0
KLE1 140133Z 08007KT 30/19 A3001 RMK A01 T02970193  RH  054%=      5-min Rain = 0
KLE1 140134Z 08008KT 30/19 A3001 RMK A01 T02970194  RH  054%=      5-min Rain = 0
KLE1 140135Z 08008KT 30/19 A3001 RMK A01 T02960193  RH  054%=      5-min Rain = 0
KLE1 140136Z 08008KT 30/19 A3001 RMK A01 T02950194  RH  054%=      5-min Rain = 0
KLE1 140137Z 08008KT 30/19 A3002 RMK A01 T02950194  RH  055%=      5-min Rain = 0
KLE1 140138Z 08008KT 29/20 A3002 RMK A01 T02940195  RH  055%=      5-min Rain = 0
KLE1 140139Z 08007KT 29/20 A3002 RMK A01 T02940195  RH  055%=      5-min Rain = 0
KLE1 140140Z 08008KT 29/20 A3002 RMK A01 T02930195  RH  056%=      5-min Rain = 0
KLE1 140141Z 08007KT 29/20 A3002 RMK A01 T02930195  RH  056%=      5-min Rain = 0
KLE1 140142Z 08008KT 29/20 A3002 RMK A01 T02930195  RH  056%=      5-min Rain = 0
KLE1 140143Z 08007KT 29/20 A3002 RMK A01 T02930196  RH  056%=      5-min Rain = 0
KLE1 140144Z 08007KT 29/20 A3002 RMK A01 T02920196  RH  056%=      5-min Rain = 0
KLE1 140145Z 08007KT 29/20 A3002 RMK A01 T02920196  RH  056%=      5-min Rain = 0
KLE1 140146Z 08007KT 29/20 A3002 RMK A01 T02920197  RH  057%=      5-min Rain = 0
KLE1 140147Z 08007KT 29/20 A3002 RMK A01 T02910197  RH  057%=      5-min Rain = 0
KLE1 140148Z 08007KT 29/20 A3002 RMK A01 T02900197  RH  057%=      5-min Rain = 0
KLE1 140149Z 08007KT 29/20 A3002 RMK A01 T02890197  RH  058%=      5-min Rain = 0
KLE1 140150Z 08007KT 29/20 A3002 RMK A01 T02890197  RH  058%=      5-min Rain = 0
KLE1 140151Z 08007KT 29/20 A3002 RMK A01 T02880197  RH  058%=      5-min Rain = 0
KLE1 140152Z 08007KT 29/20 A3002 RMK A01 T02870197  RH  058%=      5-min Rain = 0
KLE1 140153Z 08007KT 29/20 A3002 RMK A01 T02870197  RH  058%=      5-min Rain = 0
KLE1 140154Z 08007KT 29/20 A3002 RMK A01 T02870198  RH  059%=      5-min Rain = 0
KLE1 140155Z 08007KT 29/20 A3002 RMK A01 T02860198  RH  059%=      5-min Rain = 0
KLE1 140156Z 08007KT 29/20 A3002 RMK A01 T02850198  RH  059%=      5-min Rain = 0
KLE1 140157Z 07007KT 29/20 A3002 RMK A01 T02850198  RH  059%=      5-min Rain = 0
KLE1 140158Z 07007KT 29/20 A3002 RMK A01 T02850198  RH  059%=      5-min Rain = 0
KLE1 140159Z 07007KT 28/20 A3002 RMK A01 T02840198  RH  060%=      5-min Rain = 0
KLE1 140200Z 07007KT 28/20 A3002 RMK A01 T02840198  RH  060%=      5-min Rain = 0
KLE1 140201Z 07007KT 28/20 A3003 RMK A01 T02840198  RH  060%=      5-min Rain = 0
KLE1 140202Z 07007KT 28/20 A3003 RMK A01 T02840198  RH  060%=      5-min Rain = 0
KLE1 140203Z 07007KT 28/20 A3003 RMK A01 T02830198  RH  060%=      5-min Rain = 0
KLE1 140204Z 06007KT 28/20 A3003 RMK A01 T02840198  RH  060%=      5-min Rain = 0
KLE1 140205Z 06007KT 28/20 A3003 RMK A01 T02830197  RH  059%=      5-min Rain = 0
KLE1 140206Z 06007KT 28/20 A3003 RMK A01 T02830197  RH  059%=      5-min Rain = 0
KLE1 140207Z 06007KT 28/20 A3003 RMK A01 T02830197  RH  060%=      5-min Rain = 0
KLE1 140208Z 06007KT 28/20 A3003 RMK A01 T02830197  RH  060%=      5-min Rain = 0
KLE1 140209Z 06007KT 28/20 A3003 RMK A01 T02830197  RH  060%=      5-min Rain = 0
KLE1 140210Z 06007KT 28/20 A3003 RMK A01 T02830197  RH  060%=      5-min Rain = 0
KLE1 140211Z 06007KT 28/20 A3004 RMK A01 T02830198  RH  060%=      5-min Rain = 0
KLE1 140212Z 06007KT 28/20 A3004 RMK A01 T02830198  RH  060%=      5-min Rain = 0
KLE1 140213Z 06007KT 28/20 A3004 RMK A01 T02830198  RH  060%=      5-min Rain = 0
KLE1 140214Z 06007KT 28/20 A3004 RMK A01 T02830198  RH  060%=      5-min Rain = 0
KLE1 140215Z 06007KT 28/20 A3004 RMK A01 T02830198  RH  060%=      5-min Rain = 0
KLE1 140216Z 06007KT 28/20 A3004 RMK A01 T02820198  RH  060%=      5-min Rain = 0
KLE1 140217Z 06007KT 28/20 A3004 RMK A01 T02820198  RH  060%=      5-min Rain = 0
KLE1 140218Z 06008KT 28/20 A3004 RMK A01 T02810198  RH  060%=      5-min Rain = 0
KLE1 140219Z 06007KT 28/20 A3004 RMK A01 T02810197  RH  060%=      5-min Rain = 0
KLE1 140220Z 06008KT 28/20 A3004 RMK A01 T02810197  RH  060%=      5-min Rain = 0
KLE1 140221Z 07008KT 28/20 A3004 RMK A01 T02820197  RH  060%=      5-min Rain = 0
KLE1 140222Z 06008KT 28/20 A3004 RMK A01 T02820197  RH  060%=      5-min Rain = 0
KLE1 140223Z 07008KT 28/20 A3004 RMK A01 T02820197  RH  060%=      5-min Rain = 0
KLE1 140224Z 07008KT 28/20 A3004 RMK A01 T02820197  RH  060%=      5-min Rain = 0
KLE1 140225Z 07009KT 28/20 A3004 RMK A01 T02830197  RH  060%=      5-min Rain = 0
KLE1 140226Z 07008KT 28/20 A3004 RMK A01 T02820197  RH  060%=      5-min Rain = 0
KLE1 140227Z 06008KT 28/20 A3005 RMK A01 T02830197  RH  060%=      5-min Rain = 0
KLE1 140228Z 06007KT 28/20 A3005 RMK A01 T02820197  RH  060%=      5-min Rain = 0
KLE1 140229Z 06008KT 28/20 A3005 RMK A01 T02830197  RH  060%=      5-min Rain = 0
KLE1 140230Z 06008KT 28/20 A3005 RMK A01 T02820197  RH  060%=      5-min Rain = 0
KLE1 140231Z 06008KT 28/20 A3005 RMK A01 T02820196  RH  060%=      5-min Rain = 0
KLE1 140232Z 07008KT 28/20 A3005 RMK A01 T02820196  RH  060%=      5-min Rain = 0
KLE1 140233Z 07008KT 28/20 A3005 RMK A01 T02820196  RH  060%=      5-min Rain = 0
KLE1 140234Z 06007KT 28/20 A3005 RMK A01 T02820196  RH  060%=      5-min Rain = 0
KLE1 140235Z 06008KT 28/20 A3005 RMK A01 T02820196  RH  060%=      5-min Rain = 0
KLE1 140236Z 06008KT 28/20 A3006 RMK A01 T02820196  RH  060%=      5-min Rain = 0
KLE1 140237Z 06007KT 28/20 A3006 RMK A01 T02810196  RH  060%=      5-min Rain = 0
KLE1 140238Z 06008KT 28/20 A3006 RMK A01 T02810195  RH  060%=      5-min Rain = 0
KLE1 140239Z 06008KT 28/20 A3006 RMK A01 T02810196  RH  060%=      5-min Rain = 0
KLE1 140240Z 06008KT 28/20 A3006 RMK A01 T02810196  RH  060%=      5-min Rain = 0
KLE1 140241Z 06008KT 28/20 A3006 RMK A01 T02810195  RH  060%=      5-min Rain = 0
KLE1 140242Z 06008KT 28/20 A3006 RMK A01 T02810195  RH  060%=      5-min Rain = 0
KLE1 140243Z 06008KT 28/20 A3006 RMK A01 T02810195  RH  060%=      5-min Rain = 0
KLE1 140244Z 06009KT 28/20 A3006 RMK A01 T02810195  RH  060%=      5-min Rain = 0
KLE1 140245Z 06009KT 28/19 A3006 RMK A01 T02810194  RH  059%=      5-min Rain = 0
KLE1 140246Z 06009KT 28/19 A3006 RMK A01 T02810194  RH  059%=      5-min Rain = 0
KLE1 140247Z 06009KT 28/19 A3006 RMK A01 T02810194  RH  059%=      5-min Rain = 0
KLE1 140248Z 06009KT 28/19 A3007 RMK A01 T02810194  RH  059%=      5-min Rain = 0
KLE1 140249Z 06009KT 28/19 A3007 RMK A01 T02820194  RH  059%=      5-min Rain = 0
KLE1 140250Z 06009KT 28/19 A3007 RMK A01 T02820194  RH  059%=      5-min Rain = 0
KLE1 140251Z 06008KT 28/19 A3007 RMK A01 T02820193  RH  059%=      5-min Rain = 0
KLE1 140252Z 06009KT 28/19 A3007 RMK A01 T02810193  RH  059%=      5-min Rain = 0
KLE1 140253Z 05008KT 28/19 A3007 RMK A01 T02810193  RH  059%=      5-min Rain = 0
KLE1 140254Z 05009KT 28/19 A3007 RMK A01 T02810193  RH  059%=      5-min Rain = 0
KLE1 140255Z 05009KT 28/19 A3007 RMK A01 T02810193  RH  059%=      5-min Rain = 0
KLE1 140256Z 06009KT 28/19 A3007 RMK A01 T02810193  RH  059%=      5-min Rain = 0
KLE1 140257Z 05008KT 28/19 A3007 RMK A01 T02810193  RH  059%=      5-min Rain = 0
KLE1 140258Z 05008KT 28/19 A3007 RMK A01 T02800193  RH  059%=      5-min Rain = 0
KLE1 140259Z 06008KT 28/19 A3007 RMK A01 T02800193  RH  059%=      5-min Rain = 0
KLE1 140300Z 06008KT 28/19 A3007 RMK A01 T02790192  RH  059%=      5-min Rain = 0
KLE1 140301Z 06008KT 28/19 A3007 RMK A01 T02790192  RH  059%=      5-min Rain = 0
KLE1 140302Z 06008KT 28/19 A3007 RMK A01 T02790192  RH  059%=      5-min Rain = 0
KLE1 140303Z 06008KT 28/19 A3007 RMK A01 T02780192  RH  060%=      5-min Rain = 0
KLE1 140304Z 06008KT 28/19 A3007 RMK A01 T02780193  RH  060%=      5-min Rain = 0
KLE1 140305Z 06008KT 28/19 A3007 RMK A01 T02780192  RH  060%=      5-min Rain = 0
KLE1 140306Z 06008KT 28/19 A3007 RMK A01 T02770192  RH  060%=      5-min Rain = 0
KLE1 140307Z 07008KT 28/19 A3007 RMK A01 T02770192  RH  060%=      5-min Rain = 0
KLE1 140308Z 07007KT 28/19 A3007 RMK A01 T02770191  RH  060%=      5-min Rain = 0
KLE1 140309Z 07008KT 28/19 A3007 RMK A01 T02770192  RH  060%=      5-min Rain = 0
KLE1 140310Z 07008KT 28/19 A3007 RMK A01 T02770191  RH  060%=      5-min Rain = 0
KLE1 140311Z 07008KT 28/19 A3007 RMK A01 T02770192  RH  060%=      5-min Rain = 0
KLE1 140312Z 07008KT 28/19 A3007 RMK A01 T02770191  RH  060%=      5-min Rain = 0
KLE1 140313Z 07008KT 28/19 A3007 RMK A01 T02770191  RH  060%=      5-min Rain = 0
KLE1 140314Z 07009KT 28/19 A3007 RMK A01 T02770191  RH  059%=      5-min Rain = 0
KLE1 140315Z 07009KT 28/19 A3007 RMK A01 T02770191  RH  060%=      5-min Rain = 0
KLE1 140316Z 07009KT 28/19 A3007 RMK A01 T02770191  RH  060%=      5-min Rain = 0
KLE1 140317Z 07009KT 28/19 A3007 RMK A01 T02760191  RH  060%=      5-min Rain = 0
KLE1 140318Z 07008KT 28/19 A3007 RMK A01 T02750191  RH  060%=      5-min Rain = 0
KLE1 140319Z 07008KT 27/19 A3007 RMK A01 T02740191  RH  060%=      5-min Rain = 0
KLE1 140320Z 07009KT 27/19 A3007 RMK A01 T02730191  RH  061%=      5-min Rain = 0
KLE1 140321Z 07008KT 27/19 A3007 RMK A01 T02730191  RH  061%=      5-min Rain = 0
KLE1 140322Z 07009KT 27/19 A3007 RMK A01 T02720191  RH  061%=      5-min Rain = 0
KLE1 140323Z 07009KT 27/19 A3007 RMK A01 T02720191  RH  061%=      5-min Rain = 0
KLE1 140324Z 07009KT 27/19 A3007 RMK A01 T02720190  RH  061%=      5-min Rain = 0
KLE1 140325Z 07008KT 27/19 A3007 RMK A01 T02710190  RH  061%=      5-min Rain = 0
KLE1 140326Z 07009KT 27/19 A3007 RMK A01 T02720190  RH  061%=      5-min Rain = 0
KLE1 140327Z 07008KT 27/19 A3007 RMK A01 T02720190  RH  061%=      5-min Rain = 0
KLE1 140328Z 07008KT 27/19 A3007 RMK A01 T02710190  RH  061%=      5-min Rain = 0
KLE1 140329Z 08008KT 27/19 A3007 RMK A01 T02710190  RH  061%=      5-min Rain = 0
KLE1 140330Z 08008KT 27/19 A3007 RMK A01 T02700190  RH  062%=      5-min Rain = 0
KLE1 140331Z 08008KT 27/19 A3007 RMK A01 T02700191  RH  062%=      5-min Rain = 0
KLE1 140332Z 08008KT 27/19 A3007 RMK A01 T02690191  RH  062%=      5-min Rain = 0
KLE1 140333Z 08008KT 27/19 A3007 RMK A01 T02690190  RH  062%=      5-min Rain = 0
KLE1 140334Z 08008KT 27/19 A3007 RMK A01 T02690191  RH  062%=      5-min Rain = 0
KLE1 140335Z 08008KT 27/19 A3007 RMK A01 T02680191  RH  063%=      5-min Rain = 0
KLE1 140336Z 08008KT 27/19 A3006 RMK A01 T02680191  RH  063%=      5-min Rain = 0
KLE1 140337Z 08008KT 27/19 A3006 RMK A01 T02670191  RH  063%=      5-min Rain = 0
KLE1 140338Z 08008KT 27/19 A3006 RMK A01 T02670192  RH  064%=      5-min Rain = 0
KLE1 140339Z 07008KT 27/19 A3007 RMK A01 T02660192  RH  064%=      5-min Rain = 0
KLE1 140340Z 07008KT 27/19 A3007 RMK A01 T02650192  RH  064%=      5-min Rain = 0
KLE1 140341Z 07008KT 26/19 A3007 RMK A01 T02640192  RH  064%=      5-min Rain = 0
KLE1 140342Z 07008KT 26/19 A3007 RMK A01 T02640192  RH  064%=      5-min Rain = 0
KLE1 140343Z 07008KT 26/19 A3007 RMK A01 T02640192  RH  064%=      5-min Rain = 0
KLE1 140344Z 07008KT 26/19 A3007 RMK A01 T02640191  RH  064%=      5-min Rain = 0
KLE1 140345Z 07008KT 27/19 A3007 RMK A01 T02650191  RH  064%=      5-min Rain = 0
KLE1 140346Z 07009KT 26/19 A3006 RMK A01 T02640190  RH  064%=      5-min Rain = 0
KLE1 140347Z 07009KT 26/19 A3007 RMK A01 T02640190  RH  064%=      5-min Rain = 0
KLE1 140348Z 07009KT 26/19 A3007 RMK A01 T02640190  RH  064%=      5-min Rain = 0
KLE1 140349Z 07009KT 26/19 A3007 RMK A01 T02640190  RH  064%=      5-min Rain = 0
KLE1 140350Z 07009KT 26/19 A3007 RMK A01 T02640190  RH  064%=      5-min Rain = 0
KLE1 140351Z 07009KT 26/19 A3007 RMK A01 T02640190  RH  064%=      5-min Rain = 0
KLE1 140352Z 07009KT 26/19 A3007 RMK A01 T02640190  RH  064%=      5-min Rain = 0
KLE1 140353Z 07009KT 26/19 A3007 RMK A01 T02640189  RH  063%=      5-min Rain = 0
KLE1 140354Z 07009KT 27/19 A3007 RMK A01 T02650189  RH  063%=      5-min Rain = 0
KLE1 140355Z 06009KT 27/19 A3007 RMK A01 T02650189  RH  063%=      5-min Rain = 0
KLE1 140356Z 06009KT 27/19 A3007 RMK A01 T02660188  RH  062%=      5-min Rain = 0
KLE1 140357Z 07009KT 27/19 A3007 RMK A01 T02670188  RH  062%=      5-min Rain = 0
KLE1 140358Z 06009KT 27/19 A3007 RMK A01 T02670188  RH  062%=      5-min Rain = 0
KLE1 140359Z 06009KT 27/19 A3008 RMK A01 T02670188  RH  062%=      5-min Rain = 0
KLE1 140400Z 06009KT 27/19 A3008 RMK A01 T02680188  RH  062%=      5-min Rain = 0
KLE1 140401Z 06009KT 27/19 A3008 RMK A01 T02680188  RH  061%=      5-min Rain = 0
KLE1 140402Z 06010KT 27/19 A3008 RMK A01 T02690188  RH  061%=      5-min Rain = 0
KLE1 140403Z 06010KT 27/19 A3008 RMK A01 T02690188  RH  061%=      5-min Rain = 0
KLE1 140404Z 06009KT 27/19 A3008 RMK A01 T02690188  RH  061%=      5-min Rain = 0
KLE1 140405Z 06009KT 27/19 A3008 RMK A01 T02690188  RH  061%=      5-min Rain = 0
KLE1 140406Z 06009KT 27/19 A3008 RMK A01 T02690188  RH  061%=      5-min Rain = 0
KLE1 140407Z 06009KT 27/19 A3009 RMK A01 T02690188  RH  061%=      5-min Rain = 0
KLE1 140408Z 06008KT 27/19 A3009 RMK A01 T02700189  RH  061%=      5-min Rain = 0
KLE1 140409Z 05009KT 27/19 A3009 RMK A01 T02690188  RH  061%=      5-min Rain = 0
KLE1 140410Z 06009KT 27/19 A3009 RMK A01 T02690187  RH  061%=      5-min Rain = 0
KLE1 140411Z 06009KT 27/19 A3009 RMK A01 T02680187  RH  061%=      5-min Rain = 0
KLE1 140412Z 06008KT 27/19 A3009 RMK A01 T02680187  RH  061%=      5-min Rain = 0
KLE1 140413Z 07009KT 27/19 A3008 RMK A01 T02690187  RH  061%=      5-min Rain = 0
KLE1 140414Z 07008KT 27/19 A3008 RMK A01 T02680187  RH  061%=      5-min Rain = 0
KLE1 140415Z 07008KT 27/19 A3008 RMK A01 T02680187  RH  061%=      5-min Rain = 0
KLE1 140416Z 07009KT 27/19 A3008 RMK A01 T02670187  RH  061%=      5-min Rain = 0
KLE1 140417Z 07009KT 27/19 A3008 RMK A01 T02670187  RH  061%=      5-min Rain = 0
KLE1 140418Z 07008KT 27/19 A3008 RMK A01 T02670186  RH  061%=      5-min Rain = 0
KLE1 140419Z 06008KT 27/19 A3009 RMK A01 T02670186  RH  061%=      5-min Rain = 0
KLE1 140420Z 07009KT 27/19 A3009 RMK A01 T02670186  RH  061%=      5-min Rain = 0
KLE1 140421Z 06009KT 27/19 A3009 RMK A01 T02670186  RH  061%=      5-min Rain = 0
KLE1 140422Z 07009KT 27/19 A3009 RMK A01 T02680186  RH  061%=      5-min Rain = 0
KLE1 140423Z 06008KT 27/19 A3009 RMK A01 T02670186  RH  061%=      5-min Rain = 0
KLE1 140424Z 06009KT 27/19 A3009 RMK A01 T02670186  RH  061%=      5-min Rain = 0
KLE1 140425Z 06010KT 27/19 A3009 RMK A01 T02660186  RH  061%=      5-min Rain = 0
KLE1 140426Z 06009KT 27/19 A3009 RMK A01 T02660185  RH  061%=      5-min Rain = 0
KLE1 140427Z 06009KT 27/19 A3009 RMK A01 T02660185  RH  061%=      5-min Rain = 0
KLE1 140428Z 06009KT 27/19 A3009 RMK A01 T02660186  RH  061%=      5-min Rain = 0
KLE1 140429Z 06010KT 27/19 A3009 RMK A01 T02660185  RH  061%=      5-min Rain = 0
KLE1 140430Z 06009KT 27/19 A3009 RMK A01 T02660185  RH  061%=      5-min Rain = 0
KLE1 140431Z 06009KT 27/19 A3009 RMK A01 T02660185  RH  061%=      5-min Rain = 0
KLE1 140432Z 06009KT 27/19 A3009 RMK A01 T02660185  RH  061%=      5-min Rain = 0
KLE1 140433Z 07009KT 27/19 A3009 RMK A01 T02660185  RH  061%=      5-min Rain = 0
KLE1 140434Z 06008KT 27/19 A3009 RMK A01 T02660185  RH  061%=      5-min Rain = 0
KLE1 140435Z 07009KT 27/19 A3009 RMK A01 T02660185  RH  061%=      5-min Rain = 0
KLE1 140436Z 06008KT 27/19 A3009 RMK A01 T02650185  RH  061%=      5-min Rain = 0
KLE1 140437Z 06009KT 27/19 A3009 RMK A01 T02650185  RH  062%=      5-min Rain = 0
KLE1 140438Z 06008KT 27/19 A3009 RMK A01 T02650185  RH  062%=      5-min Rain = 0
KLE1 140439Z 06009KT 27/19 A3009 RMK A01 T02650185  RH  062%=      5-min Rain = 0
KLE1 140440Z 06008KT 27/19 A3009 RMK A01 T02650185  RH  062%=      5-min Rain = 0
KLE1 140441Z 06008KT 27/19 A3009 RMK A01 T02650185  RH  062%=      5-min Rain = 0
KLE1 140442Z 06008KT 27/19 A3009 RMK A01 T02650186  RH  062%=      5-min Rain = 0
KLE1 140443Z 07008KT 26/19 A3009 RMK A01 T02640185  RH  062%=      5-min Rain = 0
KLE1 140444Z 07008KT 26/19 A3009 RMK A01 T02640185  RH  062%=      5-min Rain = 0
KLE1 140445Z 06008KT 26/19 A3009 RMK A01 T02640186  RH  062%=      5-min Rain = 0
KLE1 140446Z 06008KT 26/19 A3008 RMK A01 T02640185  RH  062%=      5-min Rain = 0
KLE1 140447Z 07008KT 26/19 A3008 RMK A01 T02640185  RH  062%=      5-min Rain = 0
KLE1 140448Z 07008KT 26/19 A3008 RMK A01 T02640185  RH  062%=      5-min Rain = 0
KLE1 140449Z 07008KT 26/19 A3008 RMK A01 T02630185  RH  062%=      5-min Rain = 0
KLE1 140450Z 07008KT 26/19 A3008 RMK A01 T02630186  RH  062%=      5-min Rain = 0
KLE1 140451Z 07009KT 26/19 A3008 RMK A01 T02630186  RH  063%=      5-min Rain = 0
KLE1 140452Z 07008KT 26/19 A3008 RMK A01 T02620185  RH  063%=      5-min Rain = 0
KLE1 140453Z 07008KT 26/19 A3008 RMK A01 T02620186  RH  063%=      5-min Rain = 0
KLE1 140454Z 07008KT 26/19 A3008 RMK A01 T02620186  RH  063%=      5-min Rain = 0
KLE1 140455Z 06008KT 26/19 A3008 RMK A01 T02620186  RH  063%=      5-min Rain = 0
KLE1 140456Z 06008KT 26/19 A3008 RMK A01 T02620186  RH  063%=      5-min Rain = 0
KLE1 140457Z 06008KT 26/19 A3008 RMK A01 T02610186  RH  063%=      5-min Rain = 0
KLE1 140458Z 06008KT 26/19 A3008 RMK A01 T02610186  RH  063%=      5-min Rain = 0
KLE1 140459Z 05008KT 26/19 A3008 RMK A01 T02610185  RH  063%=      5-min Rain = 0

Page generated in 0.1245 seconds.